<?xml version="1.0" encoding="UTF-8" standalone="no" ?>
<gpx xmlns="http://www.topografix.com/GPX/1/1" xmlns:xsi="http://www.w3.org/2001/XMLSchema-instance" xsi:schemaLocation="http://www.topografix.com/GPX/1/1 http://www.topografix.com/GPX/1/1/gpx.xsd" version="1.1" creator="VisuGPX - https://www.visugpx.com">
  <metadata>
    <name>RochefortEnTerre_PinsMoulinNeuf_Malansac_14-19km</name>
    <desc><![CDATA[gnerando idor:7901395_8151206_8308528]]></desc>
  </metadata>
  <trk>
    <name><![CDATA[RochefortEnTerre_Pins_19.5km-7901395]]></name>
    <extensions>
      <line xmlns="http://www.topografix.com/GPX/gpx_style/0/2">
        <color>0000FF</color>
        <width>4</width>
      </line>
    </extensions>
    <trkseg>
      <trkpt lat="47.69916" lon="-2.33433">
        <ele>48</ele>
        <time>2023-11-11T19:12:32Z</time>
      </trkpt>
      <trkpt lat="47.69915" lon="-2.3346">
        <ele>48</ele>
        <time>2023-11-11T19:12:56Z</time>
      </trkpt>
      <trkpt lat="47.69924" lon="-2.3357">
        <ele>50</ele>
        <time>2023-11-11T19:14:36Z</time>
      </trkpt>
      <trkpt lat="47.69931" lon="-2.33598">
        <ele>50</ele>
        <time>2023-11-11T19:15:03Z</time>
      </trkpt>
      <trkpt lat="47.69932" lon="-2.33625">
        <ele>51</ele>
        <time>2023-11-11T19:15:27Z</time>
      </trkpt>
      <trkpt lat="47.69941" lon="-2.33648">
        <ele>51</ele>
        <time>2023-11-11T19:15:51Z</time>
      </trkpt>
      <trkpt lat="47.69948" lon="-2.33701">
        <ele>54</ele>
        <time>2023-11-11T19:16:39Z</time>
      </trkpt>
      <trkpt lat="47.69942" lon="-2.33726">
        <ele>55</ele>
        <time>2023-11-11T19:17:03Z</time>
      </trkpt>
      <trkpt lat="47.69932" lon="-2.33749">
        <ele>57</ele>
        <time>2023-11-11T19:17:28Z</time>
      </trkpt>
      <trkpt lat="47.69916" lon="-2.33798">
        <ele>58</ele>
        <time>2023-11-11T19:18:17Z</time>
      </trkpt>
      <trkpt lat="47.69918" lon="-2.33826">
        <ele>59</ele>
        <time>2023-11-11T19:18:42Z</time>
      </trkpt>
      <trkpt lat="47.69934" lon="-2.33814">
        <ele>59</ele>
        <time>2023-11-11T19:19:06Z</time>
      </trkpt>
      <trkpt lat="47.69948" lon="-2.33796">
        <ele>59</ele>
        <time>2023-11-11T19:19:31Z</time>
      </trkpt>
      <trkpt lat="47.69955" lon="-2.33771">
        <ele>58</ele>
        <time>2023-11-11T19:19:55Z</time>
      </trkpt>
      <trkpt lat="47.69971" lon="-2.33757">
        <ele>57</ele>
        <time>2023-11-11T19:20:20Z</time>
      </trkpt>
      <trkpt lat="47.69956" lon="-2.33776">
        <ele>58</ele>
        <time>2023-11-11T19:20:46Z</time>
      </trkpt>
      <trkpt lat="47.69972" lon="-2.33761">
        <ele>58</ele>
        <time>2023-11-11T19:21:11Z</time>
      </trkpt>
      <trkpt lat="47.69991" lon="-2.33751">
        <ele>57</ele>
        <time>2023-11-11T19:21:38Z</time>
      </trkpt>
      <trkpt lat="47.70029" lon="-2.33749">
        <ele>50</ele>
        <time>2023-11-11T19:22:29Z</time>
      </trkpt>
      <trkpt lat="47.70047" lon="-2.33745">
        <ele>46</ele>
        <time>2023-11-11T19:22:53Z</time>
      </trkpt>
      <trkpt lat="47.70083" lon="-2.33731">
        <ele>37</ele>
        <time>2023-11-11T19:23:43Z</time>
      </trkpt>
      <trkpt lat="47.701" lon="-2.33743">
        <ele>36</ele>
        <time>2023-11-11T19:24:08Z</time>
      </trkpt>
      <trkpt lat="47.70115" lon="-2.33758">
        <ele>35</ele>
        <time>2023-11-11T19:24:32Z</time>
      </trkpt>
      <trkpt lat="47.70127" lon="-2.33783">
        <ele>35</ele>
        <time>2023-11-11T19:25:00Z</time>
      </trkpt>
      <trkpt lat="47.70141" lon="-2.33766">
        <ele>32</ele>
        <time>2023-11-11T19:25:24Z</time>
      </trkpt>
      <trkpt lat="47.7016" lon="-2.3377">
        <ele>30</ele>
        <time>2023-11-11T19:25:49Z</time>
      </trkpt>
      <trkpt lat="47.70175" lon="-2.33754">
        <ele>29</ele>
        <time>2023-11-11T19:26:14Z</time>
      </trkpt>
      <trkpt lat="47.70178" lon="-2.33725">
        <ele>28</ele>
        <time>2023-11-11T19:26:40Z</time>
      </trkpt>
      <trkpt lat="47.70189" lon="-2.3367">
        <ele>30</ele>
        <time>2023-11-11T19:27:32Z</time>
      </trkpt>
      <trkpt lat="47.702" lon="-2.33646">
        <ele>33</ele>
        <time>2023-11-11T19:27:58Z</time>
      </trkpt>
      <trkpt lat="47.70196" lon="-2.33618">
        <ele>34</ele>
        <time>2023-11-11T19:28:24Z</time>
      </trkpt>
      <trkpt lat="47.70201" lon="-2.33562">
        <ele>39</ele>
        <time>2023-11-11T19:29:14Z</time>
      </trkpt>
      <trkpt lat="47.70209" lon="-2.33538">
        <ele>41</ele>
        <time>2023-11-11T19:29:38Z</time>
      </trkpt>
      <trkpt lat="47.70206" lon="-2.33512">
        <ele>42</ele>
        <time>2023-11-11T19:30:02Z</time>
      </trkpt>
      <trkpt lat="47.70189" lon="-2.33435">
        <ele>44</ele>
        <time>2023-11-11T19:31:15Z</time>
      </trkpt>
      <trkpt lat="47.70171" lon="-2.33388">
        <ele>42</ele>
        <time>2023-11-11T19:32:03Z</time>
      </trkpt>
      <trkpt lat="47.70166" lon="-2.33361">
        <ele>43</ele>
        <time>2023-11-11T19:32:29Z</time>
      </trkpt>
      <trkpt lat="47.70154" lon="-2.33337">
        <ele>42</ele>
        <time>2023-11-11T19:32:55Z</time>
      </trkpt>
      <trkpt lat="47.70147" lon="-2.3331">
        <ele>43</ele>
        <time>2023-11-11T19:33:21Z</time>
      </trkpt>
      <trkpt lat="47.70148" lon="-2.33282">
        <ele>46</ele>
        <time>2023-11-11T19:33:47Z</time>
      </trkpt>
      <trkpt lat="47.70138" lon="-2.33257">
        <ele>46</ele>
        <time>2023-11-11T19:34:13Z</time>
      </trkpt>
      <trkpt lat="47.70121" lon="-2.3324">
        <ele>43</ele>
        <time>2023-11-11T19:34:40Z</time>
      </trkpt>
      <trkpt lat="47.70109" lon="-2.33186">
        <ele>44</ele>
        <time>2023-11-11T19:35:31Z</time>
      </trkpt>
      <trkpt lat="47.70084" lon="-2.33112">
        <ele>44</ele>
        <time>2023-11-11T19:36:46Z</time>
      </trkpt>
      <trkpt lat="47.70062" lon="-2.33067">
        <ele>44</ele>
        <time>2023-11-11T19:37:36Z</time>
      </trkpt>
      <trkpt lat="47.70046" lon="-2.33019">
        <ele>44</ele>
        <time>2023-11-11T19:38:24Z</time>
      </trkpt>
      <trkpt lat="47.70041" lon="-2.32958">
        <ele>49</ele>
        <time>2023-11-11T19:39:19Z</time>
      </trkpt>
      <trkpt lat="47.7003" lon="-2.32906">
        <ele>53</ele>
        <time>2023-11-11T19:40:08Z</time>
      </trkpt>
      <trkpt lat="47.70021" lon="-2.32879">
        <ele>54</ele>
        <time>2023-11-11T19:40:35Z</time>
      </trkpt>
      <trkpt lat="47.70017" lon="-2.32824">
        <ele>58</ele>
        <time>2023-11-11T19:41:25Z</time>
      </trkpt>
      <trkpt lat="47.70006" lon="-2.32772">
        <ele>59</ele>
        <time>2023-11-11T19:42:13Z</time>
      </trkpt>
      <trkpt lat="47.70003" lon="-2.32744">
        <ele>60</ele>
        <time>2023-11-11T19:42:39Z</time>
      </trkpt>
      <trkpt lat="47.70009" lon="-2.32719">
        <ele>62</ele>
        <time>2023-11-11T19:43:03Z</time>
      </trkpt>
      <trkpt lat="47.69983" lon="-2.32641">
        <ele>61</ele>
        <time>2023-11-11T19:44:21Z</time>
      </trkpt>
      <trkpt lat="47.69978" lon="-2.32615">
        <ele>61</ele>
        <time>2023-11-11T19:44:45Z</time>
      </trkpt>
      <trkpt lat="47.69982" lon="-2.32588">
        <ele>63</ele>
        <time>2023-11-11T19:45:10Z</time>
      </trkpt>
      <trkpt lat="47.69965" lon="-2.32577">
        <ele>60</ele>
        <time>2023-11-11T19:45:35Z</time>
      </trkpt>
      <trkpt lat="47.69962" lon="-2.3255">
        <ele>60</ele>
        <time>2023-11-11T19:45:59Z</time>
      </trkpt>
      <trkpt lat="47.69963" lon="-2.32466">
        <ele>60</ele>
        <time>2023-11-11T19:47:15Z</time>
      </trkpt>
      <trkpt lat="47.6999" lon="-2.32425">
        <ele>63</ele>
        <time>2023-11-11T19:48:06Z</time>
      </trkpt>
      <trkpt lat="47.70008" lon="-2.32378">
        <ele>65</ele>
        <time>2023-11-11T19:48:55Z</time>
      </trkpt>
      <trkpt lat="47.70041" lon="-2.32315">
        <ele>69</ele>
        <time>2023-11-11T19:50:07Z</time>
      </trkpt>
      <trkpt lat="47.70047" lon="-2.32289">
        <ele>69</ele>
        <time>2023-11-11T19:50:31Z</time>
      </trkpt>
      <trkpt lat="47.7005" lon="-2.32235">
        <ele>70</ele>
        <time>2023-11-11T19:51:20Z</time>
      </trkpt>
      <trkpt lat="47.70056" lon="-2.32208">
        <ele>71</ele>
        <time>2023-11-11T19:51:45Z</time>
      </trkpt>
      <trkpt lat="47.70058" lon="-2.3218">
        <ele>72</ele>
        <time>2023-11-11T19:52:11Z</time>
      </trkpt>
      <trkpt lat="47.70065" lon="-2.32154">
        <ele>74</ele>
        <time>2023-11-11T19:52:36Z</time>
      </trkpt>
      <trkpt lat="47.70072" lon="-2.321">
        <ele>76</ele>
        <time>2023-11-11T19:53:25Z</time>
      </trkpt>
      <trkpt lat="47.70071" lon="-2.32073">
        <ele>77</ele>
        <time>2023-11-11T19:53:50Z</time>
      </trkpt>
      <trkpt lat="47.70084" lon="-2.31988">
        <ele>80</ele>
        <time>2023-11-11T19:55:08Z</time>
      </trkpt>
      <trkpt lat="47.70096" lon="-2.31935">
        <ele>78</ele>
        <time>2023-11-11T19:55:58Z</time>
      </trkpt>
      <trkpt lat="47.70096" lon="-2.31908">
        <ele>77</ele>
        <time>2023-11-11T19:56:22Z</time>
      </trkpt>
      <trkpt lat="47.70104" lon="-2.31882">
        <ele>75</ele>
        <time>2023-11-11T19:56:48Z</time>
      </trkpt>
      <trkpt lat="47.70102" lon="-2.31826">
        <ele>73</ele>
        <time>2023-11-11T19:57:38Z</time>
      </trkpt>
      <trkpt lat="47.70111" lon="-2.31803">
        <ele>74</ele>
        <time>2023-11-11T19:58:02Z</time>
      </trkpt>
      <trkpt lat="47.70108" lon="-2.31718">
        <ele>77</ele>
        <time>2023-11-11T19:59:19Z</time>
      </trkpt>
      <trkpt lat="47.7011" lon="-2.3169">
        <ele>78</ele>
        <time>2023-11-11T19:59:44Z</time>
      </trkpt>
      <trkpt lat="47.70125" lon="-2.31638">
        <ele>80</ele>
        <time>2023-11-11T20:00:35Z</time>
      </trkpt>
      <trkpt lat="47.7014" lon="-2.31621">
        <ele>80</ele>
        <time>2023-11-11T20:01:00Z</time>
      </trkpt>
      <trkpt lat="47.70175" lon="-2.31598">
        <ele>79</ele>
        <time>2023-11-11T20:01:51Z</time>
      </trkpt>
      <trkpt lat="47.7019" lon="-2.31583">
        <ele>79</ele>
        <time>2023-11-11T20:02:15Z</time>
      </trkpt>
      <trkpt lat="47.70199" lon="-2.31556">
        <ele>79</ele>
        <time>2023-11-11T20:02:42Z</time>
      </trkpt>
      <trkpt lat="47.70201" lon="-2.31529">
        <ele>78</ele>
        <time>2023-11-11T20:03:07Z</time>
      </trkpt>
      <trkpt lat="47.70198" lon="-2.31502">
        <ele>79</ele>
        <time>2023-11-11T20:03:31Z</time>
      </trkpt>
      <trkpt lat="47.70198" lon="-2.31473">
        <ele>78</ele>
        <time>2023-11-11T20:03:57Z</time>
      </trkpt>
      <trkpt lat="47.70186" lon="-2.31361">
        <ele>78</ele>
        <time>2023-11-11T20:05:39Z</time>
      </trkpt>
      <trkpt lat="47.70177" lon="-2.31308">
        <ele>78</ele>
        <time>2023-11-11T20:06:28Z</time>
      </trkpt>
      <trkpt lat="47.70176" lon="-2.31253">
        <ele>78</ele>
        <time>2023-11-11T20:07:18Z</time>
      </trkpt>
      <trkpt lat="47.70169" lon="-2.31141">
        <ele>80</ele>
        <time>2023-11-11T20:08:59Z</time>
      </trkpt>
      <trkpt lat="47.70172" lon="-2.31086">
        <ele>81</ele>
        <time>2023-11-11T20:09:48Z</time>
      </trkpt>
      <trkpt lat="47.70165" lon="-2.31032">
        <ele>80</ele>
        <time>2023-11-11T20:10:38Z</time>
      </trkpt>
      <trkpt lat="47.70159" lon="-2.31006">
        <ele>79</ele>
        <time>2023-11-11T20:11:02Z</time>
      </trkpt>
      <trkpt lat="47.70147" lon="-2.30984">
        <ele>79</ele>
        <time>2023-11-11T20:11:28Z</time>
      </trkpt>
      <trkpt lat="47.70129" lon="-2.30975">
        <ele>79</ele>
        <time>2023-11-11T20:11:53Z</time>
      </trkpt>
      <trkpt lat="47.70112" lon="-2.30961">
        <ele>79</ele>
        <time>2023-11-11T20:12:19Z</time>
      </trkpt>
      <trkpt lat="47.70078" lon="-2.30941">
        <ele>79</ele>
        <time>2023-11-11T20:13:08Z</time>
      </trkpt>
      <trkpt lat="47.70062" lon="-2.30926">
        <ele>79</ele>
        <time>2023-11-11T20:13:33Z</time>
      </trkpt>
      <trkpt lat="47.70051" lon="-2.309">
        <ele>79</ele>
        <time>2023-11-11T20:14:01Z</time>
      </trkpt>
      <trkpt lat="47.70043" lon="-2.30847">
        <ele>78</ele>
        <time>2023-11-11T20:14:49Z</time>
      </trkpt>
      <trkpt lat="47.70049" lon="-2.30791">
        <ele>77</ele>
        <time>2023-11-11T20:15:40Z</time>
      </trkpt>
      <trkpt lat="47.70058" lon="-2.30765">
        <ele>77</ele>
        <time>2023-11-11T20:16:07Z</time>
      </trkpt>
      <trkpt lat="47.70053" lon="-2.30736">
        <ele>76</ele>
        <time>2023-11-11T20:16:33Z</time>
      </trkpt>
      <trkpt lat="47.70058" lon="-2.3068">
        <ele>75</ele>
        <time>2023-11-11T20:17:24Z</time>
      </trkpt>
      <trkpt lat="47.70068" lon="-2.30657">
        <ele>76</ele>
        <time>2023-11-11T20:17:49Z</time>
      </trkpt>
      <trkpt lat="47.70074" lon="-2.3063">
        <ele>76</ele>
        <time>2023-11-11T20:18:14Z</time>
      </trkpt>
      <trkpt lat="47.70066" lon="-2.30545">
        <ele>75</ele>
        <time>2023-11-11T20:19:31Z</time>
      </trkpt>
      <trkpt lat="47.7007" lon="-2.30518">
        <ele>76</ele>
        <time>2023-11-11T20:19:56Z</time>
      </trkpt>
      <trkpt lat="47.70081" lon="-2.30493">
        <ele>76</ele>
        <time>2023-11-11T20:20:23Z</time>
      </trkpt>
      <trkpt lat="47.70088" lon="-2.30407">
        <ele>75</ele>
        <time>2023-11-11T20:21:41Z</time>
      </trkpt>
      <trkpt lat="47.70098" lon="-2.30385">
        <ele>74</ele>
        <time>2023-11-11T20:22:05Z</time>
      </trkpt>
      <trkpt lat="47.70105" lon="-2.30358">
        <ele>73</ele>
        <time>2023-11-11T20:22:31Z</time>
      </trkpt>
      <trkpt lat="47.70115" lon="-2.30276">
        <ele>73</ele>
        <time>2023-11-11T20:23:46Z</time>
      </trkpt>
      <trkpt lat="47.70113" lon="-2.3025">
        <ele>74</ele>
        <time>2023-11-11T20:24:09Z</time>
      </trkpt>
      <trkpt lat="47.70115" lon="-2.30222">
        <ele>74</ele>
        <time>2023-11-11T20:24:34Z</time>
      </trkpt>
      <trkpt lat="47.7011" lon="-2.30193">
        <ele>74</ele>
        <time>2023-11-11T20:25:01Z</time>
      </trkpt>
      <trkpt lat="47.70112" lon="-2.30166">
        <ele>74</ele>
        <time>2023-11-11T20:25:26Z</time>
      </trkpt>
      <trkpt lat="47.70109" lon="-2.30108">
        <ele>74</ele>
        <time>2023-11-11T20:26:18Z</time>
      </trkpt>
      <trkpt lat="47.70114" lon="-2.30082">
        <ele>74</ele>
        <time>2023-11-11T20:26:42Z</time>
      </trkpt>
      <trkpt lat="47.70111" lon="-2.30054">
        <ele>74</ele>
        <time>2023-11-11T20:27:08Z</time>
      </trkpt>
      <trkpt lat="47.70111" lon="-2.30024">
        <ele>73</ele>
        <time>2023-11-11T20:27:35Z</time>
      </trkpt>
      <trkpt lat="47.70122" lon="-2.29972">
        <ele>74</ele>
        <time>2023-11-11T20:28:23Z</time>
      </trkpt>
      <trkpt lat="47.7013" lon="-2.29947">
        <ele>75</ele>
        <time>2023-11-11T20:28:48Z</time>
      </trkpt>
      <trkpt lat="47.70139" lon="-2.29866">
        <ele>77</ele>
        <time>2023-11-11T20:30:02Z</time>
      </trkpt>
      <trkpt lat="47.70133" lon="-2.29813">
        <ele>76</ele>
        <time>2023-11-11T20:30:50Z</time>
      </trkpt>
      <trkpt lat="47.70138" lon="-2.29787">
        <ele>76</ele>
        <time>2023-11-11T20:31:15Z</time>
      </trkpt>
      <trkpt lat="47.70126" lon="-2.29705">
        <ele>73</ele>
        <time>2023-11-11T20:32:30Z</time>
      </trkpt>
      <trkpt lat="47.70126" lon="-2.29679">
        <ele>72</ele>
        <time>2023-11-11T20:32:53Z</time>
      </trkpt>
      <trkpt lat="47.70091" lon="-2.29616">
        <ele>72</ele>
        <time>2023-11-11T20:34:07Z</time>
      </trkpt>
      <trkpt lat="47.70086" lon="-2.29588">
        <ele>72</ele>
        <time>2023-11-11T20:34:33Z</time>
      </trkpt>
      <trkpt lat="47.70074" lon="-2.29565">
        <ele>71</ele>
        <time>2023-11-11T20:34:59Z</time>
      </trkpt>
      <trkpt lat="47.70073" lon="-2.29511">
        <ele>70</ele>
        <time>2023-11-11T20:35:47Z</time>
      </trkpt>
      <trkpt lat="47.70075" lon="-2.29483">
        <ele>71</ele>
        <time>2023-11-11T20:36:13Z</time>
      </trkpt>
      <trkpt lat="47.70053" lon="-2.29408">
        <ele>70</ele>
        <time>2023-11-11T20:37:26Z</time>
      </trkpt>
      <trkpt lat="47.70054" lon="-2.29353">
        <ele>72</ele>
        <time>2023-11-11T20:38:16Z</time>
      </trkpt>
      <trkpt lat="47.70062" lon="-2.29328">
        <ele>73</ele>
        <time>2023-11-11T20:38:40Z</time>
      </trkpt>
      <trkpt lat="47.70063" lon="-2.29301">
        <ele>72</ele>
        <time>2023-11-11T20:39:05Z</time>
      </trkpt>
      <trkpt lat="47.70055" lon="-2.29275">
        <ele>71</ele>
        <time>2023-11-11T20:39:30Z</time>
      </trkpt>
      <trkpt lat="47.70054" lon="-2.29248">
        <ele>71</ele>
        <time>2023-11-11T20:39:55Z</time>
      </trkpt>
      <trkpt lat="47.70061" lon="-2.29194">
        <ele>72</ele>
        <time>2023-11-11T20:40:44Z</time>
      </trkpt>
      <trkpt lat="47.7006" lon="-2.29139">
        <ele>72</ele>
        <time>2023-11-11T20:41:33Z</time>
      </trkpt>
      <trkpt lat="47.7005" lon="-2.29084">
        <ele>72</ele>
        <time>2023-11-11T20:42:25Z</time>
      </trkpt>
      <trkpt lat="47.7008" lon="-2.29049">
        <ele>75</ele>
        <time>2023-11-11T20:43:16Z</time>
      </trkpt>
      <trkpt lat="47.70098" lon="-2.29048">
        <ele>75</ele>
        <time>2023-11-11T20:43:40Z</time>
      </trkpt>
      <trkpt lat="47.70107" lon="-2.29024">
        <ele>76</ele>
        <time>2023-11-11T20:44:04Z</time>
      </trkpt>
      <trkpt lat="47.70109" lon="-2.28885">
        <ele>75</ele>
        <time>2023-11-11T20:46:09Z</time>
      </trkpt>
      <trkpt lat="47.70105" lon="-2.28859">
        <ele>75</ele>
        <time>2023-11-11T20:46:33Z</time>
      </trkpt>
      <trkpt lat="47.70105" lon="-2.28804">
        <ele>74</ele>
        <time>2023-11-11T20:47:22Z</time>
      </trkpt>
      <trkpt lat="47.7009" lon="-2.28723">
        <ele>73</ele>
        <time>2023-11-11T20:48:38Z</time>
      </trkpt>
      <trkpt lat="47.70079" lon="-2.28643">
        <ele>73</ele>
        <time>2023-11-11T20:49:51Z</time>
      </trkpt>
      <trkpt lat="47.70077" lon="-2.28617">
        <ele>73</ele>
        <time>2023-11-11T20:50:15Z</time>
      </trkpt>
      <trkpt lat="47.70082" lon="-2.28562">
        <ele>74</ele>
        <time>2023-11-11T20:51:05Z</time>
      </trkpt>
      <trkpt lat="47.70075" lon="-2.28537">
        <ele>74</ele>
        <time>2023-11-11T20:51:29Z</time>
      </trkpt>
      <trkpt lat="47.70063" lon="-2.28514">
        <ele>75</ele>
        <time>2023-11-11T20:51:55Z</time>
      </trkpt>
      <trkpt lat="47.70048" lon="-2.28495">
        <ele>75</ele>
        <time>2023-11-11T20:52:21Z</time>
      </trkpt>
      <trkpt lat="47.70031" lon="-2.28444">
        <ele>75</ele>
        <time>2023-11-11T20:53:12Z</time>
      </trkpt>
      <trkpt lat="47.70023" lon="-2.28391">
        <ele>76</ele>
        <time>2023-11-11T20:54:01Z</time>
      </trkpt>
      <trkpt lat="47.70021" lon="-2.28336">
        <ele>76</ele>
        <time>2023-11-11T20:54:51Z</time>
      </trkpt>
      <trkpt lat="47.70006" lon="-2.28202">
        <ele>76</ele>
        <time>2023-11-11T20:56:53Z</time>
      </trkpt>
      <trkpt lat="47.70002" lon="-2.28147">
        <ele>75</ele>
        <time>2023-11-11T20:57:42Z</time>
      </trkpt>
      <trkpt lat="47.70003" lon="-2.28121">
        <ele>74</ele>
        <time>2023-11-11T20:58:06Z</time>
      </trkpt>
      <trkpt lat="47.69989" lon="-2.28103">
        <ele>73</ele>
        <time>2023-11-11T20:58:31Z</time>
      </trkpt>
      <trkpt lat="47.69971" lon="-2.28105">
        <ele>72</ele>
        <time>2023-11-11T20:58:55Z</time>
      </trkpt>
      <trkpt lat="47.69949" lon="-2.28149">
        <ele>71</ele>
        <time>2023-11-11T20:59:44Z</time>
      </trkpt>
      <trkpt lat="47.69933" lon="-2.2816">
        <ele>70</ele>
        <time>2023-11-11T21:00:07Z</time>
      </trkpt>
      <trkpt lat="47.69915" lon="-2.2816">
        <ele>69</ele>
        <time>2023-11-11T21:00:31Z</time>
      </trkpt>
      <trkpt lat="47.69912" lon="-2.28187">
        <ele>68</ele>
        <time>2023-11-11T21:00:56Z</time>
      </trkpt>
      <trkpt lat="47.69901" lon="-2.28209">
        <ele>67</ele>
        <time>2023-11-11T21:01:21Z</time>
      </trkpt>
      <trkpt lat="47.69897" lon="-2.28235">
        <ele>66</ele>
        <time>2023-11-11T21:01:45Z</time>
      </trkpt>
      <trkpt lat="47.69903" lon="-2.28262">
        <ele>67</ele>
        <time>2023-11-11T21:02:10Z</time>
      </trkpt>
      <trkpt lat="47.69886" lon="-2.28271">
        <ele>64</ele>
        <time>2023-11-11T21:02:34Z</time>
      </trkpt>
      <trkpt lat="47.69857" lon="-2.28303">
        <ele>58</ele>
        <time>2023-11-11T21:03:22Z</time>
      </trkpt>
      <trkpt lat="47.69847" lon="-2.28356">
        <ele>55</ele>
        <time>2023-11-11T21:04:12Z</time>
      </trkpt>
      <trkpt lat="47.69831" lon="-2.28369">
        <ele>52</ele>
        <time>2023-11-11T21:04:36Z</time>
      </trkpt>
      <trkpt lat="47.69824" lon="-2.28395">
        <ele>51</ele>
        <time>2023-11-11T21:05:01Z</time>
      </trkpt>
      <trkpt lat="47.69814" lon="-2.28419">
        <ele>50</ele>
        <time>2023-11-11T21:05:27Z</time>
      </trkpt>
      <trkpt lat="47.69784" lon="-2.28456">
        <ele>45</ele>
        <time>2023-11-11T21:06:19Z</time>
      </trkpt>
      <trkpt lat="47.69768" lon="-2.2847">
        <ele>42</ele>
        <time>2023-11-11T21:06:43Z</time>
      </trkpt>
      <trkpt lat="47.69751" lon="-2.2848">
        <ele>40</ele>
        <time>2023-11-11T21:07:08Z</time>
      </trkpt>
      <trkpt lat="47.69696" lon="-2.28498">
        <ele>43</ele>
        <time>2023-11-11T21:08:23Z</time>
      </trkpt>
      <trkpt lat="47.69642" lon="-2.28521">
        <ele>46</ele>
        <time>2023-11-11T21:09:38Z</time>
      </trkpt>
      <trkpt lat="47.69625" lon="-2.28532">
        <ele>46</ele>
        <time>2023-11-11T21:10:03Z</time>
      </trkpt>
      <trkpt lat="47.69588" lon="-2.28546">
        <ele>47</ele>
        <time>2023-11-11T21:10:54Z</time>
      </trkpt>
      <trkpt lat="47.69534" lon="-2.28571">
        <ele>52</ele>
        <time>2023-11-11T21:12:09Z</time>
      </trkpt>
      <trkpt lat="47.69516" lon="-2.28585">
        <ele>54</ele>
        <time>2023-11-11T21:12:36Z</time>
      </trkpt>
      <trkpt lat="47.69479" lon="-2.28598">
        <ele>60</ele>
        <time>2023-11-11T21:13:27Z</time>
      </trkpt>
      <trkpt lat="47.6943" lon="-2.28635">
        <ele>67</ele>
        <time>2023-11-11T21:14:40Z</time>
      </trkpt>
      <trkpt lat="47.6942" lon="-2.28658">
        <ele>69</ele>
        <time>2023-11-11T21:15:05Z</time>
      </trkpt>
      <trkpt lat="47.69367" lon="-2.28685">
        <ele>74</ele>
        <time>2023-11-11T21:16:20Z</time>
      </trkpt>
      <trkpt lat="47.69352" lon="-2.28699">
        <ele>75</ele>
        <time>2023-11-11T21:16:43Z</time>
      </trkpt>
      <trkpt lat="47.69331" lon="-2.28699">
        <ele>76</ele>
        <time>2023-11-11T21:17:11Z</time>
      </trkpt>
      <trkpt lat="47.69311" lon="-2.28705">
        <ele>76</ele>
        <time>2023-11-11T21:17:39Z</time>
      </trkpt>
      <trkpt lat="47.69292" lon="-2.28703">
        <ele>76</ele>
        <time>2023-11-11T21:18:04Z</time>
      </trkpt>
      <trkpt lat="47.69275" lon="-2.28719">
        <ele>77</ele>
        <time>2023-11-11T21:18:31Z</time>
      </trkpt>
      <trkpt lat="47.69225" lon="-2.28756">
        <ele>77</ele>
        <time>2023-11-11T21:19:45Z</time>
      </trkpt>
      <trkpt lat="47.69205" lon="-2.2876">
        <ele>76</ele>
        <time>2023-11-11T21:20:12Z</time>
      </trkpt>
      <trkpt lat="47.69187" lon="-2.28768">
        <ele>75</ele>
        <time>2023-11-11T21:20:37Z</time>
      </trkpt>
      <trkpt lat="47.69168" lon="-2.28767">
        <ele>74</ele>
        <time>2023-11-11T21:21:03Z</time>
      </trkpt>
      <trkpt lat="47.6915" lon="-2.28776">
        <ele>72</ele>
        <time>2023-11-11T21:21:28Z</time>
      </trkpt>
      <trkpt lat="47.69112" lon="-2.28783">
        <ele>67</ele>
        <time>2023-11-11T21:22:19Z</time>
      </trkpt>
      <trkpt lat="47.69097" lon="-2.28801">
        <ele>66</ele>
        <time>2023-11-11T21:22:45Z</time>
      </trkpt>
      <trkpt lat="47.69094" lon="-2.28827">
        <ele>67</ele>
        <time>2023-11-11T21:23:09Z</time>
      </trkpt>
      <trkpt lat="47.69084" lon="-2.2885">
        <ele>67</ele>
        <time>2023-11-11T21:23:33Z</time>
      </trkpt>
      <trkpt lat="47.69077" lon="-2.28877">
        <ele>68</ele>
        <time>2023-11-11T21:23:59Z</time>
      </trkpt>
      <trkpt lat="47.69066" lon="-2.289">
        <ele>68</ele>
        <time>2023-11-11T21:24:25Z</time>
      </trkpt>
      <trkpt lat="47.69061" lon="-2.28927">
        <ele>68</ele>
        <time>2023-11-11T21:24:50Z</time>
      </trkpt>
      <trkpt lat="47.69064" lon="-2.28954">
        <ele>69</ele>
        <time>2023-11-11T21:25:14Z</time>
      </trkpt>
      <trkpt lat="47.69058" lon="-2.28981">
        <ele>68</ele>
        <time>2023-11-11T21:25:40Z</time>
      </trkpt>
      <trkpt lat="47.69074" lon="-2.2903">
        <ele>68</ele>
        <time>2023-11-11T21:26:29Z</time>
      </trkpt>
      <trkpt lat="47.69079" lon="-2.29057">
        <ele>68</ele>
        <time>2023-11-11T21:26:54Z</time>
      </trkpt>
      <trkpt lat="47.69088" lon="-2.2908">
        <ele>68</ele>
        <time>2023-11-11T21:27:18Z</time>
      </trkpt>
      <trkpt lat="47.691" lon="-2.29102">
        <ele>68</ele>
        <time>2023-11-11T21:27:43Z</time>
      </trkpt>
      <trkpt lat="47.69103" lon="-2.29128">
        <ele>67</ele>
        <time>2023-11-11T21:28:07Z</time>
      </trkpt>
      <trkpt lat="47.69184" lon="-2.29245">
        <ele>68</ele>
        <time>2023-11-11T21:30:38Z</time>
      </trkpt>
      <trkpt lat="47.69201" lon="-2.29259">
        <ele>70</ele>
        <time>2023-11-11T21:31:04Z</time>
      </trkpt>
      <trkpt lat="47.69219" lon="-2.29255">
        <ele>72</ele>
        <time>2023-11-11T21:31:28Z</time>
      </trkpt>
      <trkpt lat="47.69235" lon="-2.29239">
        <ele>75</ele>
        <time>2023-11-11T21:31:54Z</time>
      </trkpt>
      <trkpt lat="47.69254" lon="-2.29236">
        <ele>77</ele>
        <time>2023-11-11T21:32:19Z</time>
      </trkpt>
      <trkpt lat="47.69272" lon="-2.29242">
        <ele>78</ele>
        <time>2023-11-11T21:32:44Z</time>
      </trkpt>
      <trkpt lat="47.69278" lon="-2.29266">
        <ele>77</ele>
        <time>2023-11-11T21:33:07Z</time>
      </trkpt>
      <trkpt lat="47.69293" lon="-2.29281">
        <ele>78</ele>
        <time>2023-11-11T21:33:31Z</time>
      </trkpt>
      <trkpt lat="47.69312" lon="-2.29275">
        <ele>79</ele>
        <time>2023-11-11T21:33:57Z</time>
      </trkpt>
      <trkpt lat="47.69324" lon="-2.29327">
        <ele>80</ele>
        <time>2023-11-11T21:34:46Z</time>
      </trkpt>
      <trkpt lat="47.69322" lon="-2.29354">
        <ele>79</ele>
        <time>2023-11-11T21:35:11Z</time>
      </trkpt>
      <trkpt lat="47.69329" lon="-2.2938">
        <ele>79</ele>
        <time>2023-11-11T21:35:36Z</time>
      </trkpt>
      <trkpt lat="47.69332" lon="-2.2949">
        <ele>80</ele>
        <time>2023-11-11T21:37:15Z</time>
      </trkpt>
      <trkpt lat="47.69338" lon="-2.29545">
        <ele>81</ele>
        <time>2023-11-11T21:38:05Z</time>
      </trkpt>
      <trkpt lat="47.69337" lon="-2.29574">
        <ele>81</ele>
        <time>2023-11-11T21:38:31Z</time>
      </trkpt>
      <trkpt lat="47.69339" lon="-2.29601">
        <ele>82</ele>
        <time>2023-11-11T21:38:55Z</time>
      </trkpt>
      <trkpt lat="47.69335" lon="-2.29627">
        <ele>82</ele>
        <time>2023-11-11T21:39:19Z</time>
      </trkpt>
      <trkpt lat="47.69335" lon="-2.29683">
        <ele>83</ele>
        <time>2023-11-11T21:40:09Z</time>
      </trkpt>
      <trkpt lat="47.69342" lon="-2.29708">
        <ele>83</ele>
        <time>2023-11-11T21:40:34Z</time>
      </trkpt>
      <trkpt lat="47.6934" lon="-2.29735">
        <ele>83</ele>
        <time>2023-11-11T21:40:58Z</time>
      </trkpt>
      <trkpt lat="47.69346" lon="-2.29763">
        <ele>83</ele>
        <time>2023-11-11T21:41:25Z</time>
      </trkpt>
      <trkpt lat="47.69344" lon="-2.29902">
        <ele>77</ele>
        <time>2023-11-11T21:43:29Z</time>
      </trkpt>
      <trkpt lat="47.69347" lon="-2.29986">
        <ele>78</ele>
        <time>2023-11-11T21:44:45Z</time>
      </trkpt>
      <trkpt lat="47.69355" lon="-2.3004">
        <ele>80</ele>
        <time>2023-11-11T21:45:35Z</time>
      </trkpt>
      <trkpt lat="47.69386" lon="-2.30174">
        <ele>79</ele>
        <time>2023-11-11T21:47:42Z</time>
      </trkpt>
      <trkpt lat="47.69406" lon="-2.30282">
        <ele>78</ele>
        <time>2023-11-11T21:49:23Z</time>
      </trkpt>
      <trkpt lat="47.69442" lon="-2.30409">
        <ele>80</ele>
        <time>2023-11-11T21:51:26Z</time>
      </trkpt>
      <trkpt lat="47.6946" lon="-2.30517">
        <ele>81</ele>
        <time>2023-11-11T21:53:06Z</time>
      </trkpt>
      <trkpt lat="47.69459" lon="-2.30544">
        <ele>81</ele>
        <time>2023-11-11T21:53:31Z</time>
      </trkpt>
      <trkpt lat="47.69445" lon="-2.30563">
        <ele>81</ele>
        <time>2023-11-11T21:53:56Z</time>
      </trkpt>
      <trkpt lat="47.69427" lon="-2.30567">
        <ele>80</ele>
        <time>2023-11-11T21:54:20Z</time>
      </trkpt>
      <trkpt lat="47.69409" lon="-2.30576">
        <ele>80</ele>
        <time>2023-11-11T21:54:45Z</time>
      </trkpt>
      <trkpt lat="47.69371" lon="-2.30582">
        <ele>79</ele>
        <time>2023-11-11T21:55:36Z</time>
      </trkpt>
      <trkpt lat="47.69332" lon="-2.30583">
        <ele>78</ele>
        <time>2023-11-11T21:56:28Z</time>
      </trkpt>
      <trkpt lat="47.69315" lon="-2.30591">
        <ele>78</ele>
        <time>2023-11-11T21:56:52Z</time>
      </trkpt>
      <trkpt lat="47.69297" lon="-2.30595">
        <ele>78</ele>
        <time>2023-11-11T21:57:17Z</time>
      </trkpt>
      <trkpt lat="47.6924" lon="-2.30598">
        <ele>78</ele>
        <time>2023-11-11T21:58:33Z</time>
      </trkpt>
      <trkpt lat="47.69203" lon="-2.30605">
        <ele>80</ele>
        <time>2023-11-11T21:59:22Z</time>
      </trkpt>
      <trkpt lat="47.69184" lon="-2.30603">
        <ele>81</ele>
        <time>2023-11-11T21:59:48Z</time>
      </trkpt>
      <trkpt lat="47.69166" lon="-2.30593">
        <ele>83</ele>
        <time>2023-11-11T22:00:14Z</time>
      </trkpt>
      <trkpt lat="47.69149" lon="-2.30595">
        <ele>83</ele>
        <time>2023-11-11T22:00:36Z</time>
      </trkpt>
      <trkpt lat="47.69131" lon="-2.30586">
        <ele>85</ele>
        <time>2023-11-11T22:01:02Z</time>
      </trkpt>
      <trkpt lat="47.69113" lon="-2.30581">
        <ele>86</ele>
        <time>2023-11-11T22:01:26Z</time>
      </trkpt>
      <trkpt lat="47.69096" lon="-2.30569">
        <ele>86</ele>
        <time>2023-11-11T22:01:51Z</time>
      </trkpt>
      <trkpt lat="47.69086" lon="-2.30593">
        <ele>87</ele>
        <time>2023-11-11T22:02:17Z</time>
      </trkpt>
      <trkpt lat="47.6907" lon="-2.30605">
        <ele>86</ele>
        <time>2023-11-11T22:02:40Z</time>
      </trkpt>
      <trkpt lat="47.69052" lon="-2.30603">
        <ele>86</ele>
        <time>2023-11-11T22:03:05Z</time>
      </trkpt>
      <trkpt lat="47.69016" lon="-2.30616">
        <ele>85</ele>
        <time>2023-11-11T22:03:54Z</time>
      </trkpt>
      <trkpt lat="47.68996" lon="-2.30617">
        <ele>85</ele>
        <time>2023-11-11T22:04:21Z</time>
      </trkpt>
      <trkpt lat="47.68979" lon="-2.30629">
        <ele>85</ele>
        <time>2023-11-11T22:04:46Z</time>
      </trkpt>
      <trkpt lat="47.68961" lon="-2.30636">
        <ele>86</ele>
        <time>2023-11-11T22:05:11Z</time>
      </trkpt>
      <trkpt lat="47.68925" lon="-2.30647">
        <ele>88</ele>
        <time>2023-11-11T22:06:00Z</time>
      </trkpt>
      <trkpt lat="47.68907" lon="-2.30647">
        <ele>89</ele>
        <time>2023-11-11T22:06:24Z</time>
      </trkpt>
      <trkpt lat="47.68887" lon="-2.3066">
        <ele>90</ele>
        <time>2023-11-11T22:06:53Z</time>
      </trkpt>
      <trkpt lat="47.68849" lon="-2.30665">
        <ele>91</ele>
        <time>2023-11-11T22:07:44Z</time>
      </trkpt>
      <trkpt lat="47.68831" lon="-2.30671">
        <ele>91</ele>
        <time>2023-11-11T22:08:08Z</time>
      </trkpt>
      <trkpt lat="47.68815" lon="-2.30684">
        <ele>90</ele>
        <time>2023-11-11T22:08:33Z</time>
      </trkpt>
      <trkpt lat="47.68794" lon="-2.30686">
        <ele>90</ele>
        <time>2023-11-11T22:09:01Z</time>
      </trkpt>
      <trkpt lat="47.68774" lon="-2.30684">
        <ele>90</ele>
        <time>2023-11-11T22:09:28Z</time>
      </trkpt>
      <trkpt lat="47.68756" lon="-2.30695">
        <ele>89</ele>
        <time>2023-11-11T22:09:54Z</time>
      </trkpt>
      <trkpt lat="47.68684" lon="-2.30722">
        <ele>87</ele>
        <time>2023-11-11T22:11:33Z</time>
      </trkpt>
      <trkpt lat="47.68666" lon="-2.30721">
        <ele>87</ele>
        <time>2023-11-11T22:11:57Z</time>
      </trkpt>
      <trkpt lat="47.68648" lon="-2.30733">
        <ele>87</ele>
        <time>2023-11-11T22:12:23Z</time>
      </trkpt>
      <trkpt lat="47.68552" lon="-2.30764">
        <ele>87</ele>
        <time>2023-11-11T22:14:34Z</time>
      </trkpt>
      <trkpt lat="47.68533" lon="-2.30767">
        <ele>87</ele>
        <time>2023-11-11T22:15:00Z</time>
      </trkpt>
      <trkpt lat="47.68516" lon="-2.30775">
        <ele>87</ele>
        <time>2023-11-11T22:15:23Z</time>
      </trkpt>
      <trkpt lat="47.68458" lon="-2.30794">
        <ele>85</ele>
        <time>2023-11-11T22:16:43Z</time>
      </trkpt>
      <trkpt lat="47.68446" lon="-2.30774">
        <ele>85</ele>
        <time>2023-11-11T22:17:07Z</time>
      </trkpt>
      <trkpt lat="47.68439" lon="-2.3075">
        <ele>86</ele>
        <time>2023-11-11T22:17:30Z</time>
      </trkpt>
      <trkpt lat="47.68423" lon="-2.30735">
        <ele>86</ele>
        <time>2023-11-11T22:17:55Z</time>
      </trkpt>
      <trkpt lat="47.68407" lon="-2.30748">
        <ele>85</ele>
        <time>2023-11-11T22:18:20Z</time>
      </trkpt>
      <trkpt lat="47.68345" lon="-2.30813">
        <ele>86</ele>
        <time>2023-11-11T22:20:01Z</time>
      </trkpt>
      <trkpt lat="47.68314" lon="-2.30839">
        <ele>86</ele>
        <time>2023-11-11T22:20:49Z</time>
      </trkpt>
      <trkpt lat="47.68299" lon="-2.30857">
        <ele>86</ele>
        <time>2023-11-11T22:21:14Z</time>
      </trkpt>
      <trkpt lat="47.68266" lon="-2.30886">
        <ele>86</ele>
        <time>2023-11-11T22:22:05Z</time>
      </trkpt>
      <trkpt lat="47.68251" lon="-2.30904">
        <ele>86</ele>
        <time>2023-11-11T22:22:31Z</time>
      </trkpt>
      <trkpt lat="47.68217" lon="-2.30936">
        <ele>85</ele>
        <time>2023-11-11T22:23:25Z</time>
      </trkpt>
      <trkpt lat="47.68222" lon="-2.31017">
        <ele>85</ele>
        <time>2023-11-11T22:24:38Z</time>
      </trkpt>
      <trkpt lat="47.68228" lon="-2.31043">
        <ele>85</ele>
        <time>2023-11-11T22:25:03Z</time>
      </trkpt>
      <trkpt lat="47.6822" lon="-2.31069">
        <ele>85</ele>
        <time>2023-11-11T22:25:28Z</time>
      </trkpt>
      <trkpt lat="47.68208" lon="-2.31088">
        <ele>85</ele>
        <time>2023-11-11T22:25:52Z</time>
      </trkpt>
      <trkpt lat="47.68175" lon="-2.3111">
        <ele>86</ele>
        <time>2023-11-11T22:26:40Z</time>
      </trkpt>
      <trkpt lat="47.6816" lon="-2.31126">
        <ele>86</ele>
        <time>2023-11-11T22:27:05Z</time>
      </trkpt>
      <trkpt lat="47.68161" lon="-2.31153">
        <ele>86</ele>
        <time>2023-11-11T22:27:29Z</time>
      </trkpt>
      <trkpt lat="47.68178" lon="-2.31171">
        <ele>86</ele>
        <time>2023-11-11T22:27:57Z</time>
      </trkpt>
      <trkpt lat="47.68191" lon="-2.31189">
        <ele>86</ele>
        <time>2023-11-11T22:28:21Z</time>
      </trkpt>
      <trkpt lat="47.68214" lon="-2.31231">
        <ele>86</ele>
        <time>2023-11-11T22:29:09Z</time>
      </trkpt>
      <trkpt lat="47.6822" lon="-2.31258">
        <ele>86</ele>
        <time>2023-11-11T22:29:35Z</time>
      </trkpt>
      <trkpt lat="47.68229" lon="-2.31283">
        <ele>86</ele>
        <time>2023-11-11T22:30:00Z</time>
      </trkpt>
      <trkpt lat="47.68239" lon="-2.31335">
        <ele>86</ele>
        <time>2023-11-11T22:30:49Z</time>
      </trkpt>
      <trkpt lat="47.68249" lon="-2.31362">
        <ele>86</ele>
        <time>2023-11-11T22:31:16Z</time>
      </trkpt>
      <trkpt lat="47.6826" lon="-2.31383">
        <ele>86</ele>
        <time>2023-11-11T22:31:40Z</time>
      </trkpt>
      <trkpt lat="47.68284" lon="-2.3146">
        <ele>86</ele>
        <time>2023-11-11T22:32:57Z</time>
      </trkpt>
      <trkpt lat="47.68327" lon="-2.31616">
        <ele>84</ele>
        <time>2023-11-11T22:35:28Z</time>
      </trkpt>
      <trkpt lat="47.68334" lon="-2.31669">
        <ele>83</ele>
        <time>2023-11-11T22:36:17Z</time>
      </trkpt>
      <trkpt lat="47.68334" lon="-2.31725">
        <ele>82</ele>
        <time>2023-11-11T22:37:07Z</time>
      </trkpt>
      <trkpt lat="47.68317" lon="-2.31889">
        <ele>84</ele>
        <time>2023-11-11T22:39:36Z</time>
      </trkpt>
      <trkpt lat="47.68311" lon="-2.31917">
        <ele>84</ele>
        <time>2023-11-11T22:40:02Z</time>
      </trkpt>
      <trkpt lat="47.6831" lon="-2.31998">
        <ele>83</ele>
        <time>2023-11-11T22:41:15Z</time>
      </trkpt>
      <trkpt lat="47.68305" lon="-2.32054">
        <ele>81</ele>
        <time>2023-11-11T22:42:06Z</time>
      </trkpt>
      <trkpt lat="47.68308" lon="-2.3211">
        <ele>81</ele>
        <time>2023-11-11T22:42:56Z</time>
      </trkpt>
      <trkpt lat="47.68312" lon="-2.32137">
        <ele>81</ele>
        <time>2023-11-11T22:43:21Z</time>
      </trkpt>
      <trkpt lat="47.68322" lon="-2.3216">
        <ele>82</ele>
        <time>2023-11-11T22:43:46Z</time>
      </trkpt>
      <trkpt lat="47.68329" lon="-2.32184">
        <ele>82</ele>
        <time>2023-11-11T22:44:09Z</time>
      </trkpt>
      <trkpt lat="47.68333" lon="-2.32211">
        <ele>82</ele>
        <time>2023-11-11T22:44:34Z</time>
      </trkpt>
      <trkpt lat="47.6835" lon="-2.32262">
        <ele>82</ele>
        <time>2023-11-11T22:45:25Z</time>
      </trkpt>
      <trkpt lat="47.68367" lon="-2.32342">
        <ele>81</ele>
        <time>2023-11-11T22:46:41Z</time>
      </trkpt>
      <trkpt lat="47.68376" lon="-2.32397">
        <ele>82</ele>
        <time>2023-11-11T22:47:31Z</time>
      </trkpt>
      <trkpt lat="47.68385" lon="-2.32421">
        <ele>82</ele>
        <time>2023-11-11T22:47:56Z</time>
      </trkpt>
      <trkpt lat="47.6839" lon="-2.32476">
        <ele>81</ele>
        <time>2023-11-11T22:48:46Z</time>
      </trkpt>
      <trkpt lat="47.68401" lon="-2.325">
        <ele>81</ele>
        <time>2023-11-11T22:49:12Z</time>
      </trkpt>
      <trkpt lat="47.68413" lon="-2.32553">
        <ele>80</ele>
        <time>2023-11-11T22:50:02Z</time>
      </trkpt>
      <trkpt lat="47.6843" lon="-2.326">
        <ele>81</ele>
        <time>2023-11-11T22:50:50Z</time>
      </trkpt>
      <trkpt lat="47.68436" lon="-2.32625">
        <ele>81</ele>
        <time>2023-11-11T22:51:14Z</time>
      </trkpt>
      <trkpt lat="47.68435" lon="-2.32682">
        <ele>81</ele>
        <time>2023-11-11T22:52:05Z</time>
      </trkpt>
      <trkpt lat="47.68389" lon="-2.32833">
        <ele>81</ele>
        <time>2023-11-11T22:54:34Z</time>
      </trkpt>
      <trkpt lat="47.6837" lon="-2.32881">
        <ele>80</ele>
        <time>2023-11-11T22:55:24Z</time>
      </trkpt>
      <trkpt lat="47.68363" lon="-2.32907">
        <ele>79</ele>
        <time>2023-11-11T22:55:49Z</time>
      </trkpt>
      <trkpt lat="47.68336" lon="-2.32943">
        <ele>81</ele>
        <time>2023-11-11T22:56:38Z</time>
      </trkpt>
      <trkpt lat="47.68305" lon="-2.32976">
        <ele>81</ele>
        <time>2023-11-11T22:57:29Z</time>
      </trkpt>
      <trkpt lat="47.68292" lon="-2.32996">
        <ele>82</ele>
        <time>2023-11-11T22:57:54Z</time>
      </trkpt>
      <trkpt lat="47.68298" lon="-2.33022">
        <ele>82</ele>
        <time>2023-11-11T22:58:18Z</time>
      </trkpt>
      <trkpt lat="47.68325" lon="-2.33061">
        <ele>82</ele>
        <time>2023-11-11T22:59:09Z</time>
      </trkpt>
      <trkpt lat="47.68336" lon="-2.33083">
        <ele>82</ele>
        <time>2023-11-11T22:59:33Z</time>
      </trkpt>
      <trkpt lat="47.68353" lon="-2.33094">
        <ele>81</ele>
        <time>2023-11-11T22:59:58Z</time>
      </trkpt>
      <trkpt lat="47.6837" lon="-2.33088">
        <ele>81</ele>
        <time>2023-11-11T23:00:21Z</time>
      </trkpt>
      <trkpt lat="47.6839" lon="-2.33086">
        <ele>80</ele>
        <time>2023-11-11T23:00:48Z</time>
      </trkpt>
      <trkpt lat="47.68408" lon="-2.33089">
        <ele>79</ele>
        <time>2023-11-11T23:01:12Z</time>
      </trkpt>
      <trkpt lat="47.68424" lon="-2.33103">
        <ele>79</ele>
        <time>2023-11-11T23:01:37Z</time>
      </trkpt>
      <trkpt lat="47.68437" lon="-2.33123">
        <ele>78</ele>
        <time>2023-11-11T23:02:02Z</time>
      </trkpt>
      <trkpt lat="47.6846" lon="-2.33167">
        <ele>77</ele>
        <time>2023-11-11T23:02:52Z</time>
      </trkpt>
      <trkpt lat="47.68501" lon="-2.33226">
        <ele>74</ele>
        <time>2023-11-11T23:04:08Z</time>
      </trkpt>
      <trkpt lat="47.68498" lon="-2.33253">
        <ele>74</ele>
        <time>2023-11-11T23:04:33Z</time>
      </trkpt>
      <trkpt lat="47.68491" lon="-2.33278">
        <ele>73</ele>
        <time>2023-11-11T23:04:57Z</time>
      </trkpt>
      <trkpt lat="47.68483" lon="-2.33331">
        <ele>72</ele>
        <time>2023-11-11T23:05:46Z</time>
      </trkpt>
      <trkpt lat="47.6849" lon="-2.33385">
        <ele>70</ele>
        <time>2023-11-11T23:06:35Z</time>
      </trkpt>
      <trkpt lat="47.6849" lon="-2.33414">
        <ele>69</ele>
        <time>2023-11-11T23:07:01Z</time>
      </trkpt>
      <trkpt lat="47.68495" lon="-2.33439">
        <ele>68</ele>
        <time>2023-11-11T23:07:25Z</time>
      </trkpt>
      <trkpt lat="47.68514" lon="-2.33488">
        <ele>67</ele>
        <time>2023-11-11T23:08:16Z</time>
      </trkpt>
      <trkpt lat="47.68559" lon="-2.33581">
        <ele>70</ele>
        <time>2023-11-11T23:09:59Z</time>
      </trkpt>
      <trkpt lat="47.68561" lon="-2.33608">
        <ele>69</ele>
        <time>2023-11-11T23:10:23Z</time>
      </trkpt>
      <trkpt lat="47.68597" lon="-2.33703">
        <ele>68</ele>
        <time>2023-11-11T23:12:01Z</time>
      </trkpt>
      <trkpt lat="47.68611" lon="-2.3372">
        <ele>69</ele>
        <time>2023-11-11T23:12:25Z</time>
      </trkpt>
      <trkpt lat="47.68643" lon="-2.33751">
        <ele>70</ele>
        <time>2023-11-11T23:13:16Z</time>
      </trkpt>
      <trkpt lat="47.68644" lon="-2.33779">
        <ele>70</ele>
        <time>2023-11-11T23:13:41Z</time>
      </trkpt>
      <trkpt lat="47.6864" lon="-2.33806">
        <ele>70</ele>
        <time>2023-11-11T23:14:06Z</time>
      </trkpt>
      <trkpt lat="47.68659" lon="-2.33817">
        <ele>70</ele>
        <time>2023-11-11T23:14:33Z</time>
      </trkpt>
      <trkpt lat="47.68672" lon="-2.33837">
        <ele>70</ele>
        <time>2023-11-11T23:14:58Z</time>
      </trkpt>
      <trkpt lat="47.68663" lon="-2.33891">
        <ele>71</ele>
        <time>2023-11-11T23:15:48Z</time>
      </trkpt>
      <trkpt lat="47.68678" lon="-2.33907">
        <ele>72</ele>
        <time>2023-11-11T23:16:13Z</time>
      </trkpt>
      <trkpt lat="47.68695" lon="-2.33891">
        <ele>72</ele>
        <time>2023-11-11T23:16:40Z</time>
      </trkpt>
      <trkpt lat="47.68704" lon="-2.33867">
        <ele>72</ele>
        <time>2023-11-11T23:17:04Z</time>
      </trkpt>
      <trkpt lat="47.68715" lon="-2.33846">
        <ele>71</ele>
        <time>2023-11-11T23:17:28Z</time>
      </trkpt>
      <trkpt lat="47.68729" lon="-2.33829">
        <ele>71</ele>
        <time>2023-11-11T23:17:52Z</time>
      </trkpt>
      <trkpt lat="47.68747" lon="-2.33823">
        <ele>71</ele>
        <time>2023-11-11T23:18:17Z</time>
      </trkpt>
      <trkpt lat="47.68765" lon="-2.33826">
        <ele>71</ele>
        <time>2023-11-11T23:18:41Z</time>
      </trkpt>
      <trkpt lat="47.68784" lon="-2.33832">
        <ele>70</ele>
        <time>2023-11-11T23:19:07Z</time>
      </trkpt>
      <trkpt lat="47.68801" lon="-2.33843">
        <ele>70</ele>
        <time>2023-11-11T23:19:32Z</time>
      </trkpt>
      <trkpt lat="47.68816" lon="-2.33859">
        <ele>70</ele>
        <time>2023-11-11T23:19:56Z</time>
      </trkpt>
      <trkpt lat="47.68834" lon="-2.33865">
        <ele>69</ele>
        <time>2023-11-11T23:20:21Z</time>
      </trkpt>
      <trkpt lat="47.68849" lon="-2.33881">
        <ele>69</ele>
        <time>2023-11-11T23:20:46Z</time>
      </trkpt>
      <trkpt lat="47.68867" lon="-2.33885">
        <ele>68</ele>
        <time>2023-11-11T23:21:10Z</time>
      </trkpt>
      <trkpt lat="47.68885" lon="-2.33894">
        <ele>68</ele>
        <time>2023-11-11T23:21:35Z</time>
      </trkpt>
      <trkpt lat="47.68934" lon="-2.33932">
        <ele>65</ele>
        <time>2023-11-11T23:22:49Z</time>
      </trkpt>
      <trkpt lat="47.68952" lon="-2.3394">
        <ele>63</ele>
        <time>2023-11-11T23:23:14Z</time>
      </trkpt>
      <trkpt lat="47.68968" lon="-2.33952">
        <ele>61</ele>
        <time>2023-11-11T23:23:38Z</time>
      </trkpt>
      <trkpt lat="47.68982" lon="-2.33972">
        <ele>60</ele>
        <time>2023-11-11T23:24:04Z</time>
      </trkpt>
      <trkpt lat="47.68995" lon="-2.34023">
        <ele>58</ele>
        <time>2023-11-11T23:24:53Z</time>
      </trkpt>
      <trkpt lat="47.69037" lon="-2.3408">
        <ele>54</ele>
        <time>2023-11-11T23:26:09Z</time>
      </trkpt>
      <trkpt lat="47.69068" lon="-2.34149">
        <ele>50</ele>
        <time>2023-11-11T23:27:23Z</time>
      </trkpt>
      <trkpt lat="47.69074" lon="-2.34175">
        <ele>50</ele>
        <time>2023-11-11T23:27:48Z</time>
      </trkpt>
      <trkpt lat="47.69085" lon="-2.34198">
        <ele>50</ele>
        <time>2023-11-11T23:28:13Z</time>
      </trkpt>
      <trkpt lat="47.69081" lon="-2.34225">
        <ele>50</ele>
        <time>2023-11-11T23:28:38Z</time>
      </trkpt>
      <trkpt lat="47.69062" lon="-2.34271">
        <ele>51</ele>
        <time>2023-11-11T23:29:27Z</time>
      </trkpt>
      <trkpt lat="47.69073" lon="-2.34324">
        <ele>51</ele>
        <time>2023-11-11T23:30:17Z</time>
      </trkpt>
      <trkpt lat="47.69067" lon="-2.34351">
        <ele>51</ele>
        <time>2023-11-11T23:30:42Z</time>
      </trkpt>
      <trkpt lat="47.69069" lon="-2.34378">
        <ele>51</ele>
        <time>2023-11-11T23:31:07Z</time>
      </trkpt>
      <trkpt lat="47.69067" lon="-2.34405">
        <ele>51</ele>
        <time>2023-11-11T23:31:31Z</time>
      </trkpt>
      <trkpt lat="47.69058" lon="-2.34459">
        <ele>51</ele>
        <time>2023-11-11T23:32:21Z</time>
      </trkpt>
      <trkpt lat="47.69055" lon="-2.34514">
        <ele>50</ele>
        <time>2023-11-11T23:33:10Z</time>
      </trkpt>
      <trkpt lat="47.6907" lon="-2.34565">
        <ele>51</ele>
        <time>2023-11-11T23:34:00Z</time>
      </trkpt>
      <trkpt lat="47.6908" lon="-2.34589">
        <ele>51</ele>
        <time>2023-11-11T23:34:26Z</time>
      </trkpt>
      <trkpt lat="47.69082" lon="-2.34616">
        <ele>51</ele>
        <time>2023-11-11T23:34:50Z</time>
      </trkpt>
      <trkpt lat="47.6908" lon="-2.34645">
        <ele>50</ele>
        <time>2023-11-11T23:35:16Z</time>
      </trkpt>
      <trkpt lat="47.69083" lon="-2.34701">
        <ele>49</ele>
        <time>2023-11-11T23:36:07Z</time>
      </trkpt>
      <trkpt lat="47.69082" lon="-2.34728">
        <ele>49</ele>
        <time>2023-11-11T23:36:31Z</time>
      </trkpt>
      <trkpt lat="47.69089" lon="-2.34694">
        <ele>49</ele>
        <time>2023-11-11T23:37:03Z</time>
      </trkpt>
      <trkpt lat="47.69079" lon="-2.34717">
        <ele>49</ele>
        <time>2023-11-11T23:37:28Z</time>
      </trkpt>
      <trkpt lat="47.69078" lon="-2.34745">
        <ele>48</ele>
        <time>2023-11-11T23:37:53Z</time>
      </trkpt>
      <trkpt lat="47.69074" lon="-2.34772">
        <ele>48</ele>
        <time>2023-11-11T23:38:18Z</time>
      </trkpt>
      <trkpt lat="47.69062" lon="-2.34793">
        <ele>48</ele>
        <time>2023-11-11T23:38:42Z</time>
      </trkpt>
      <trkpt lat="47.69019" lon="-2.34852">
        <ele>50</ele>
        <time>2023-11-11T23:40:01Z</time>
      </trkpt>
      <trkpt lat="47.69004" lon="-2.34866">
        <ele>50</ele>
        <time>2023-11-11T23:40:24Z</time>
      </trkpt>
      <trkpt lat="47.68968" lon="-2.34887">
        <ele>48</ele>
        <time>2023-11-11T23:41:16Z</time>
      </trkpt>
      <trkpt lat="47.68932" lon="-2.34901">
        <ele>46</ele>
        <time>2023-11-11T23:42:05Z</time>
      </trkpt>
      <trkpt lat="47.68896" lon="-2.34906">
        <ele>46</ele>
        <time>2023-11-11T23:42:54Z</time>
      </trkpt>
      <trkpt lat="47.6888" lon="-2.34919">
        <ele>46</ele>
        <time>2023-11-11T23:43:18Z</time>
      </trkpt>
      <trkpt lat="47.68866" lon="-2.34937">
        <ele>46</ele>
        <time>2023-11-11T23:43:43Z</time>
      </trkpt>
      <trkpt lat="47.68844" lon="-2.34981">
        <ele>47</ele>
        <time>2023-11-11T23:44:32Z</time>
      </trkpt>
      <trkpt lat="47.68842" lon="-2.3501">
        <ele>46</ele>
        <time>2023-11-11T23:44:58Z</time>
      </trkpt>
      <trkpt lat="47.6885" lon="-2.35064">
        <ele>45</ele>
        <time>2023-11-11T23:45:48Z</time>
      </trkpt>
      <trkpt lat="47.6886" lon="-2.35089">
        <ele>45</ele>
        <time>2023-11-11T23:46:14Z</time>
      </trkpt>
      <trkpt lat="47.68874" lon="-2.35108">
        <ele>45</ele>
        <time>2023-11-11T23:46:39Z</time>
      </trkpt>
      <trkpt lat="47.68906" lon="-2.35136">
        <ele>45</ele>
        <time>2023-11-11T23:47:29Z</time>
      </trkpt>
      <trkpt lat="47.68957" lon="-2.3517">
        <ele>45</ele>
        <time>2023-11-11T23:48:43Z</time>
      </trkpt>
      <trkpt lat="47.68989" lon="-2.35199">
        <ele>45</ele>
        <time>2023-11-11T23:49:33Z</time>
      </trkpt>
      <trkpt lat="47.68996" lon="-2.35225">
        <ele>45</ele>
        <time>2023-11-11T23:49:59Z</time>
      </trkpt>
      <trkpt lat="47.68993" lon="-2.35309">
        <ele>46</ele>
        <time>2023-11-11T23:51:14Z</time>
      </trkpt>
      <trkpt lat="47.6899" lon="-2.35336">
        <ele>46</ele>
        <time>2023-11-11T23:51:39Z</time>
      </trkpt>
      <trkpt lat="47.68992" lon="-2.35364">
        <ele>46</ele>
        <time>2023-11-11T23:52:04Z</time>
      </trkpt>
      <trkpt lat="47.6898" lon="-2.35415">
        <ele>46</ele>
        <time>2023-11-11T23:52:53Z</time>
      </trkpt>
      <trkpt lat="47.68964" lon="-2.35466">
        <ele>46</ele>
        <time>2023-11-11T23:53:43Z</time>
      </trkpt>
      <trkpt lat="47.68942" lon="-2.3551">
        <ele>47</ele>
        <time>2023-11-11T23:54:32Z</time>
      </trkpt>
      <trkpt lat="47.68943" lon="-2.35537">
        <ele>46</ele>
        <time>2023-11-11T23:54:57Z</time>
      </trkpt>
      <trkpt lat="47.68929" lon="-2.35588">
        <ele>46</ele>
        <time>2023-11-11T23:55:46Z</time>
      </trkpt>
      <trkpt lat="47.68925" lon="-2.35615">
        <ele>46</ele>
        <time>2023-11-11T23:56:11Z</time>
      </trkpt>
      <trkpt lat="47.68926" lon="-2.35642">
        <ele>45</ele>
        <time>2023-11-11T23:56:35Z</time>
      </trkpt>
      <trkpt lat="47.68937" lon="-2.35725">
        <ele>46</ele>
        <time>2023-11-11T23:57:51Z</time>
      </trkpt>
      <trkpt lat="47.68939" lon="-2.35754">
        <ele>46</ele>
        <time>2023-11-11T23:58:17Z</time>
      </trkpt>
      <trkpt lat="47.68937" lon="-2.35782">
        <ele>47</ele>
        <time>2023-11-11T23:58:43Z</time>
      </trkpt>
      <trkpt lat="47.68941" lon="-2.35808">
        <ele>47</ele>
        <time>2023-11-11T23:59:07Z</time>
      </trkpt>
      <trkpt lat="47.68948" lon="-2.35833">
        <ele>47</ele>
        <time>2023-11-11T23:59:31Z</time>
      </trkpt>
      <trkpt lat="47.68959" lon="-2.35855">
        <ele>47</ele>
        <time>2023-11-11T23:59:56Z</time>
      </trkpt>
      <trkpt lat="47.68978" lon="-2.35854">
        <ele>47</ele>
        <time>2023-11-12T00:00:21Z</time>
      </trkpt>
      <trkpt lat="47.6899" lon="-2.35834">
        <ele>47</ele>
        <time>2023-11-12T00:00:45Z</time>
      </trkpt>
      <trkpt lat="47.68996" lon="-2.35808">
        <ele>47</ele>
        <time>2023-11-12T00:01:10Z</time>
      </trkpt>
      <trkpt lat="47.69003" lon="-2.35726">
        <ele>47</ele>
        <time>2023-11-12T00:02:24Z</time>
      </trkpt>
      <trkpt lat="47.69015" lon="-2.35703">
        <ele>48</ele>
        <time>2023-11-12T00:02:50Z</time>
      </trkpt>
      <trkpt lat="47.69019" lon="-2.35677">
        <ele>48</ele>
        <time>2023-11-12T00:03:14Z</time>
      </trkpt>
      <trkpt lat="47.69027" lon="-2.35652">
        <ele>48</ele>
        <time>2023-11-12T00:03:39Z</time>
      </trkpt>
      <trkpt lat="47.69039" lon="-2.35629">
        <ele>48</ele>
        <time>2023-11-12T00:04:05Z</time>
      </trkpt>
      <trkpt lat="47.69053" lon="-2.3558">
        <ele>47</ele>
        <time>2023-11-12T00:04:53Z</time>
      </trkpt>
      <trkpt lat="47.69066" lon="-2.3556">
        <ele>47</ele>
        <time>2023-11-12T00:05:18Z</time>
      </trkpt>
      <trkpt lat="47.69113" lon="-2.35472">
        <ele>48</ele>
        <time>2023-11-12T00:06:59Z</time>
      </trkpt>
      <trkpt lat="47.69126" lon="-2.35453">
        <ele>49</ele>
        <time>2023-11-12T00:07:23Z</time>
      </trkpt>
      <trkpt lat="47.69142" lon="-2.35441">
        <ele>50</ele>
        <time>2023-11-12T00:07:47Z</time>
      </trkpt>
      <trkpt lat="47.69155" lon="-2.35389">
        <ele>53</ele>
        <time>2023-11-12T00:08:37Z</time>
      </trkpt>
      <trkpt lat="47.69171" lon="-2.35339">
        <ele>56</ele>
        <time>2023-11-12T00:09:27Z</time>
      </trkpt>
      <trkpt lat="47.69165" lon="-2.35313">
        <ele>56</ele>
        <time>2023-11-12T00:09:51Z</time>
      </trkpt>
      <trkpt lat="47.69173" lon="-2.35284">
        <ele>56</ele>
        <time>2023-11-12T00:10:19Z</time>
      </trkpt>
      <trkpt lat="47.69173" lon="-2.35227">
        <ele>55</ele>
        <time>2023-11-12T00:11:11Z</time>
      </trkpt>
      <trkpt lat="47.69184" lon="-2.35204">
        <ele>56</ele>
        <time>2023-11-12T00:11:36Z</time>
      </trkpt>
      <trkpt lat="47.69188" lon="-2.35177">
        <ele>56</ele>
        <time>2023-11-12T00:12:01Z</time>
      </trkpt>
      <trkpt lat="47.69182" lon="-2.3515">
        <ele>56</ele>
        <time>2023-11-12T00:12:26Z</time>
      </trkpt>
      <trkpt lat="47.69189" lon="-2.35117">
        <ele>57</ele>
        <time>2023-11-12T00:12:57Z</time>
      </trkpt>
      <trkpt lat="47.69201" lon="-2.35027">
        <ele>54</ele>
        <time>2023-11-12T00:14:20Z</time>
      </trkpt>
      <trkpt lat="47.69207" lon="-2.35">
        <ele>52</ele>
        <time>2023-11-12T00:14:45Z</time>
      </trkpt>
      <trkpt lat="47.6923" lon="-2.34985">
        <ele>55</ele>
        <time>2023-11-12T00:15:19Z</time>
      </trkpt>
      <trkpt lat="47.6925" lon="-2.34991">
        <ele>58</ele>
        <time>2023-11-12T00:15:46Z</time>
      </trkpt>
      <trkpt lat="47.69266" lon="-2.35004">
        <ele>60</ele>
        <time>2023-11-12T00:16:11Z</time>
      </trkpt>
      <trkpt lat="47.69288" lon="-2.35012">
        <ele>62</ele>
        <time>2023-11-12T00:16:41Z</time>
      </trkpt>
      <trkpt lat="47.69302" lon="-2.3503">
        <ele>65</ele>
        <time>2023-11-12T00:17:05Z</time>
      </trkpt>
      <trkpt lat="47.69301" lon="-2.3506">
        <ele>68</ele>
        <time>2023-11-12T00:17:32Z</time>
      </trkpt>
      <trkpt lat="47.6931" lon="-2.35084">
        <ele>71</ele>
        <time>2023-11-12T00:17:57Z</time>
      </trkpt>
      <trkpt lat="47.69322" lon="-2.35105">
        <ele>73</ele>
        <time>2023-11-12T00:18:22Z</time>
      </trkpt>
      <trkpt lat="47.69328" lon="-2.3513">
        <ele>74</ele>
        <time>2023-11-12T00:18:46Z</time>
      </trkpt>
      <trkpt lat="47.69343" lon="-2.35152">
        <ele>76</ele>
        <time>2023-11-12T00:19:14Z</time>
      </trkpt>
      <trkpt lat="47.6935" lon="-2.35177">
        <ele>76</ele>
        <time>2023-11-12T00:19:38Z</time>
      </trkpt>
      <trkpt lat="47.69361" lon="-2.35198">
        <ele>76</ele>
        <time>2023-11-12T00:20:02Z</time>
      </trkpt>
      <trkpt lat="47.69363" lon="-2.35226">
        <ele>75</ele>
        <time>2023-11-12T00:20:27Z</time>
      </trkpt>
      <trkpt lat="47.69392" lon="-2.35261">
        <ele>76</ele>
        <time>2023-11-12T00:21:17Z</time>
      </trkpt>
      <trkpt lat="47.6942" lon="-2.35303">
        <ele>76</ele>
        <time>2023-11-12T00:22:10Z</time>
      </trkpt>
      <trkpt lat="47.69439" lon="-2.35308">
        <ele>76</ele>
        <time>2023-11-12T00:22:36Z</time>
      </trkpt>
      <trkpt lat="47.69473" lon="-2.35334">
        <ele>77</ele>
        <time>2023-11-12T00:23:27Z</time>
      </trkpt>
      <trkpt lat="47.6951" lon="-2.35336">
        <ele>77</ele>
        <time>2023-11-12T00:24:16Z</time>
      </trkpt>
      <trkpt lat="47.69529" lon="-2.35329">
        <ele>77</ele>
        <time>2023-11-12T00:24:43Z</time>
      </trkpt>
      <trkpt lat="47.69548" lon="-2.35329">
        <ele>77</ele>
        <time>2023-11-12T00:25:08Z</time>
      </trkpt>
      <trkpt lat="47.69587" lon="-2.35313">
        <ele>76</ele>
        <time>2023-11-12T00:26:02Z</time>
      </trkpt>
      <trkpt lat="47.69608" lon="-2.35309">
        <ele>75</ele>
        <time>2023-11-12T00:26:30Z</time>
      </trkpt>
      <trkpt lat="47.69645" lon="-2.35314">
        <ele>74</ele>
        <time>2023-11-12T00:27:20Z</time>
      </trkpt>
      <trkpt lat="47.69663" lon="-2.35323">
        <ele>74</ele>
        <time>2023-11-12T00:27:45Z</time>
      </trkpt>
      <trkpt lat="47.69699" lon="-2.35335">
        <ele>72</ele>
        <time>2023-11-12T00:28:34Z</time>
      </trkpt>
      <trkpt lat="47.69739" lon="-2.35333">
        <ele>69</ele>
        <time>2023-11-12T00:29:28Z</time>
      </trkpt>
      <trkpt lat="47.69813" lon="-2.35344">
        <ele>66</ele>
        <time>2023-11-12T00:31:07Z</time>
      </trkpt>
      <trkpt lat="47.69831" lon="-2.35342">
        <ele>66</ele>
        <time>2023-11-12T00:31:31Z</time>
      </trkpt>
      <trkpt lat="47.69885" lon="-2.3536">
        <ele>63</ele>
        <time>2023-11-12T00:32:45Z</time>
      </trkpt>
      <trkpt lat="47.69903" lon="-2.35354">
        <ele>63</ele>
        <time>2023-11-12T00:33:10Z</time>
      </trkpt>
      <trkpt lat="47.69923" lon="-2.35356">
        <ele>62</ele>
        <time>2023-11-12T00:33:36Z</time>
      </trkpt>
      <trkpt lat="47.69941" lon="-2.35348">
        <ele>61</ele>
        <time>2023-11-12T00:34:01Z</time>
      </trkpt>
      <trkpt lat="47.69979" lon="-2.35343">
        <ele>60</ele>
        <time>2023-11-12T00:34:52Z</time>
      </trkpt>
      <trkpt lat="47.69998" lon="-2.35343">
        <ele>59</ele>
        <time>2023-11-12T00:35:18Z</time>
      </trkpt>
      <trkpt lat="47.7003" lon="-2.35367">
        <ele>57</ele>
        <time>2023-11-12T00:36:05Z</time>
      </trkpt>
      <trkpt lat="47.70052" lon="-2.35413">
        <ele>56</ele>
        <time>2023-11-12T00:36:56Z</time>
      </trkpt>
      <trkpt lat="47.70068" lon="-2.35428">
        <ele>55</ele>
        <time>2023-11-12T00:37:21Z</time>
      </trkpt>
      <trkpt lat="47.70086" lon="-2.35419">
        <ele>55</ele>
        <time>2023-11-12T00:37:47Z</time>
      </trkpt>
      <trkpt lat="47.70135" lon="-2.35382">
        <ele>57</ele>
        <time>2023-11-12T00:39:00Z</time>
      </trkpt>
      <trkpt lat="47.7014" lon="-2.35356">
        <ele>57</ele>
        <time>2023-11-12T00:39:24Z</time>
      </trkpt>
      <trkpt lat="47.70175" lon="-2.35334">
        <ele>59</ele>
        <time>2023-11-12T00:40:15Z</time>
      </trkpt>
      <trkpt lat="47.70213" lon="-2.35325">
        <ele>58</ele>
        <time>2023-11-12T00:41:06Z</time>
      </trkpt>
      <trkpt lat="47.7023" lon="-2.35312">
        <ele>58</ele>
        <time>2023-11-12T00:41:32Z</time>
      </trkpt>
      <trkpt lat="47.70262" lon="-2.35281">
        <ele>57</ele>
        <time>2023-11-12T00:42:23Z</time>
      </trkpt>
      <trkpt lat="47.70289" lon="-2.35241">
        <ele>53</ele>
        <time>2023-11-12T00:43:14Z</time>
      </trkpt>
      <trkpt lat="47.70307" lon="-2.35238">
        <ele>50</ele>
        <time>2023-11-12T00:43:38Z</time>
      </trkpt>
      <trkpt lat="47.70324" lon="-2.35229">
        <ele>47</ele>
        <time>2023-11-12T00:44:02Z</time>
      </trkpt>
      <trkpt lat="47.70358" lon="-2.35252">
        <ele>46</ele>
        <time>2023-11-12T00:44:52Z</time>
      </trkpt>
      <trkpt lat="47.70396" lon="-2.35259">
        <ele>49</ele>
        <time>2023-11-12T00:45:43Z</time>
      </trkpt>
      <trkpt lat="47.70393" lon="-2.35091">
        <ele>50</ele>
        <time>2023-11-12T00:48:14Z</time>
      </trkpt>
      <trkpt lat="47.70394" lon="-2.35064">
        <ele>50</ele>
        <time>2023-11-12T00:48:38Z</time>
      </trkpt>
      <trkpt lat="47.70401" lon="-2.3501">
        <ele>50</ele>
        <time>2023-11-12T00:49:28Z</time>
      </trkpt>
      <trkpt lat="47.704" lon="-2.34927">
        <ele>50</ele>
        <time>2023-11-12T00:50:42Z</time>
      </trkpt>
      <trkpt lat="47.70385" lon="-2.34877">
        <ele>49</ele>
        <time>2023-11-12T00:51:31Z</time>
      </trkpt>
      <trkpt lat="47.70383" lon="-2.34849">
        <ele>49</ele>
        <time>2023-11-12T00:51:57Z</time>
      </trkpt>
      <trkpt lat="47.70366" lon="-2.34801">
        <ele>48</ele>
        <time>2023-11-12T00:52:45Z</time>
      </trkpt>
      <trkpt lat="47.70365" lon="-2.34774">
        <ele>49</ele>
        <time>2023-11-12T00:53:10Z</time>
      </trkpt>
      <trkpt lat="47.70346" lon="-2.34697">
        <ele>48</ele>
        <time>2023-11-12T00:54:23Z</time>
      </trkpt>
      <trkpt lat="47.70315" lon="-2.34626">
        <ele>47</ele>
        <time>2023-11-12T00:55:39Z</time>
      </trkpt>
      <trkpt lat="47.7031" lon="-2.346">
        <ele>49</ele>
        <time>2023-11-12T00:56:04Z</time>
      </trkpt>
      <trkpt lat="47.70301" lon="-2.34576">
        <ele>49</ele>
        <time>2023-11-12T00:56:28Z</time>
      </trkpt>
      <trkpt lat="47.70302" lon="-2.34549">
        <ele>50</ele>
        <time>2023-11-12T00:56:53Z</time>
      </trkpt>
      <trkpt lat="47.70298" lon="-2.3452">
        <ele>50</ele>
        <time>2023-11-12T00:57:19Z</time>
      </trkpt>
      <trkpt lat="47.7028" lon="-2.34444">
        <ele>49</ele>
        <time>2023-11-12T00:58:31Z</time>
      </trkpt>
      <trkpt lat="47.70275" lon="-2.34385">
        <ele>51</ele>
        <time>2023-11-12T00:59:25Z</time>
      </trkpt>
      <trkpt lat="47.70263" lon="-2.34335">
        <ele>49</ele>
        <time>2023-11-12T01:00:13Z</time>
      </trkpt>
      <trkpt lat="47.70251" lon="-2.34311">
        <ele>46</ele>
        <time>2023-11-12T01:00:39Z</time>
      </trkpt>
      <trkpt lat="47.70255" lon="-2.34255">
        <ele>45</ele>
        <time>2023-11-12T01:01:30Z</time>
      </trkpt>
      <trkpt lat="47.70243" lon="-2.34232">
        <ele>45</ele>
        <time>2023-11-12T01:01:56Z</time>
      </trkpt>
      <trkpt lat="47.70234" lon="-2.34208">
        <ele>46</ele>
        <time>2023-11-12T01:02:21Z</time>
      </trkpt>
      <trkpt lat="47.70216" lon="-2.34131">
        <ele>48</ele>
        <time>2023-11-12T01:03:34Z</time>
      </trkpt>
      <trkpt lat="47.70229" lon="-2.34152">
        <ele>47</ele>
        <time>2023-11-12T01:04:00Z</time>
      </trkpt>
      <trkpt lat="47.70239" lon="-2.34175">
        <ele>46</ele>
        <time>2023-11-12T01:04:24Z</time>
      </trkpt>
      <trkpt lat="47.70255" lon="-2.34188">
        <ele>47</ele>
        <time>2023-11-12T01:04:49Z</time>
      </trkpt>
      <trkpt lat="47.70272" lon="-2.3418">
        <ele>51</ele>
        <time>2023-11-12T01:05:12Z</time>
      </trkpt>
      <trkpt lat="47.70301" lon="-2.34148">
        <ele>60</ele>
        <time>2023-11-12T01:06:01Z</time>
      </trkpt>
      <trkpt lat="47.70318" lon="-2.34137">
        <ele>65</ele>
        <time>2023-11-12T01:06:25Z</time>
      </trkpt>
      <trkpt lat="47.70332" lon="-2.34155">
        <ele>67</ele>
        <time>2023-11-12T01:06:50Z</time>
      </trkpt>
      <trkpt lat="47.70325" lon="-2.34129">
        <ele>67</ele>
        <time>2023-11-12T01:07:15Z</time>
      </trkpt>
      <trkpt lat="47.70307" lon="-2.34137">
        <ele>63</ele>
        <time>2023-11-12T01:07:40Z</time>
      </trkpt>
      <trkpt lat="47.70263" lon="-2.34192">
        <ele>49</ele>
        <time>2023-11-12T01:08:57Z</time>
      </trkpt>
      <trkpt lat="47.70246" lon="-2.34183">
        <ele>46</ele>
        <time>2023-11-12T01:09:21Z</time>
      </trkpt>
      <trkpt lat="47.7023" lon="-2.34166">
        <ele>46</ele>
        <time>2023-11-12T01:09:47Z</time>
      </trkpt>
      <trkpt lat="47.70219" lon="-2.34144">
        <ele>48</ele>
        <time>2023-11-12T01:10:12Z</time>
      </trkpt>
      <trkpt lat="47.70213" lon="-2.34118">
        <ele>49</ele>
        <time>2023-11-12T01:10:37Z</time>
      </trkpt>
      <trkpt lat="47.70202" lon="-2.34095">
        <ele>48</ele>
        <time>2023-11-12T01:11:02Z</time>
      </trkpt>
      <trkpt lat="47.70201" lon="-2.34068">
        <ele>48</ele>
        <time>2023-11-12T01:11:26Z</time>
      </trkpt>
      <trkpt lat="47.70187" lon="-2.34048">
        <ele>45</ele>
        <time>2023-11-12T01:11:52Z</time>
      </trkpt>
      <trkpt lat="47.70171" lon="-2.34036">
        <ele>42</ele>
        <time>2023-11-12T01:12:16Z</time>
      </trkpt>
      <trkpt lat="47.70154" lon="-2.34028">
        <ele>42</ele>
        <time>2023-11-12T01:12:40Z</time>
      </trkpt>
      <trkpt lat="47.70148" lon="-2.34054">
        <ele>45</ele>
        <time>2023-11-12T01:13:04Z</time>
      </trkpt>
      <trkpt lat="47.70154" lon="-2.3408">
        <ele>45</ele>
        <time>2023-11-12T01:13:29Z</time>
      </trkpt>
      <trkpt lat="47.70166" lon="-2.34101">
        <ele>44</ele>
        <time>2023-11-12T01:13:54Z</time>
      </trkpt>
      <trkpt lat="47.70162" lon="-2.34127">
        <ele>46</ele>
        <time>2023-11-12T01:14:18Z</time>
      </trkpt>
      <trkpt lat="47.70171" lon="-2.34152">
        <ele>46</ele>
        <time>2023-11-12T01:14:43Z</time>
      </trkpt>
      <trkpt lat="47.70179" lon="-2.34206">
        <ele>49</ele>
        <time>2023-11-12T01:15:33Z</time>
      </trkpt>
      <trkpt lat="47.70186" lon="-2.34231">
        <ele>49</ele>
        <time>2023-11-12T01:15:57Z</time>
      </trkpt>
      <trkpt lat="47.70186" lon="-2.34258">
        <ele>50</ele>
        <time>2023-11-12T01:16:22Z</time>
      </trkpt>
      <trkpt lat="47.70169" lon="-2.3427">
        <ele>52</ele>
        <time>2023-11-12T01:16:47Z</time>
      </trkpt>
      <trkpt lat="47.70148" lon="-2.34273">
        <ele>55</ele>
        <time>2023-11-12T01:17:15Z</time>
      </trkpt>
      <trkpt lat="47.70131" lon="-2.34282">
        <ele>58</ele>
        <time>2023-11-12T01:17:39Z</time>
      </trkpt>
      <trkpt lat="47.70113" lon="-2.34281">
        <ele>61</ele>
        <time>2023-11-12T01:18:03Z</time>
      </trkpt>
      <trkpt lat="47.70094" lon="-2.34289">
        <ele>64</ele>
        <time>2023-11-12T01:18:29Z</time>
      </trkpt>
      <trkpt lat="47.70057" lon="-2.34288">
        <ele>70</ele>
        <time>2023-11-12T01:19:19Z</time>
      </trkpt>
      <trkpt lat="47.70038" lon="-2.34292">
        <ele>73</ele>
        <time>2023-11-12T01:19:44Z</time>
      </trkpt>
      <trkpt lat="47.69962" lon="-2.34296">
        <ele>76</ele>
        <time>2023-11-12T01:21:26Z</time>
      </trkpt>
      <trkpt lat="47.69952" lon="-2.34319">
        <ele>75</ele>
        <time>2023-11-12T01:21:50Z</time>
      </trkpt>
      <trkpt lat="47.69957" lon="-2.34345">
        <ele>74</ele>
        <time>2023-11-12T01:22:15Z</time>
      </trkpt>
      <trkpt lat="47.69973" lon="-2.34359">
        <ele>76</ele>
        <time>2023-11-12T01:22:39Z</time>
      </trkpt>
      <trkpt lat="47.69974" lon="-2.34388">
        <ele>75</ele>
        <time>2023-11-12T01:23:05Z</time>
      </trkpt>
      <trkpt lat="47.69986" lon="-2.34407">
        <ele>76</ele>
        <time>2023-11-12T01:23:29Z</time>
      </trkpt>
      <trkpt lat="47.69985" lon="-2.34434">
        <ele>75</ele>
        <time>2023-11-12T01:23:53Z</time>
      </trkpt>
      <trkpt lat="47.69972" lon="-2.34453">
        <ele>72</ele>
        <time>2023-11-12T01:24:18Z</time>
      </trkpt>
      <trkpt lat="47.69956" lon="-2.34438">
        <ele>70</ele>
        <time>2023-11-12T01:24:43Z</time>
      </trkpt>
      <trkpt lat="47.69936" lon="-2.34361">
        <ele>71</ele>
        <time>2023-11-12T01:25:57Z</time>
      </trkpt>
      <trkpt lat="47.69915" lon="-2.34316">
        <ele>70</ele>
        <time>2023-11-12T01:26:46Z</time>
      </trkpt>
      <trkpt lat="47.69903" lon="-2.34265">
        <ele>70</ele>
        <time>2023-11-12T01:27:35Z</time>
      </trkpt>
      <trkpt lat="47.69891" lon="-2.34243">
        <ele>67</ele>
        <time>2023-11-12T01:28:00Z</time>
      </trkpt>
      <trkpt lat="47.69883" lon="-2.34219">
        <ele>66</ele>
        <time>2023-11-12T01:28:24Z</time>
      </trkpt>
      <trkpt lat="47.69875" lon="-2.34165">
        <ele>64</ele>
        <time>2023-11-12T01:29:14Z</time>
      </trkpt>
      <trkpt lat="47.69868" lon="-2.34139">
        <ele>61</ele>
        <time>2023-11-12T01:29:39Z</time>
      </trkpt>
      <trkpt lat="47.69866" lon="-2.34084">
        <ele>59</ele>
        <time>2023-11-12T01:30:28Z</time>
      </trkpt>
      <trkpt lat="47.69872" lon="-2.34055">
        <ele>59</ele>
        <time>2023-11-12T01:30:56Z</time>
      </trkpt>
      <trkpt lat="47.69874" lon="-2.34029">
        <ele>59</ele>
        <time>2023-11-12T01:31:19Z</time>
      </trkpt>
      <trkpt lat="47.69893" lon="-2.34031">
        <ele>63</ele>
        <time>2023-11-12T01:31:45Z</time>
      </trkpt>
      <trkpt lat="47.6988" lon="-2.34005">
        <ele>60</ele>
        <time>2023-11-12T01:32:14Z</time>
      </trkpt>
      <trkpt lat="47.69881" lon="-2.33978">
        <ele>59</ele>
        <time>2023-11-12T01:32:38Z</time>
      </trkpt>
      <trkpt lat="47.69895" lon="-2.33928">
        <ele>59</ele>
        <time>2023-11-12T01:33:27Z</time>
      </trkpt>
      <trkpt lat="47.6991" lon="-2.33913">
        <ele>61</ele>
        <time>2023-11-12T01:33:51Z</time>
      </trkpt>
      <trkpt lat="47.69904" lon="-2.33887">
        <ele>59</ele>
        <time>2023-11-12T01:34:15Z</time>
      </trkpt>
      <trkpt lat="47.69905" lon="-2.3386">
        <ele>58</ele>
        <time>2023-11-12T01:34:40Z</time>
      </trkpt>
      <trkpt lat="47.6991" lon="-2.33834">
        <ele>58</ele>
        <time>2023-11-12T01:35:04Z</time>
      </trkpt>
      <trkpt lat="47.69923" lon="-2.33816">
        <ele>59</ele>
        <time>2023-11-12T01:35:28Z</time>
      </trkpt>
      <trkpt lat="47.69923" lon="-2.33789">
        <ele>58</ele>
        <time>2023-11-12T01:35:52Z</time>
      </trkpt>
      <trkpt lat="47.69919" lon="-2.33762">
        <ele>57</ele>
        <time>2023-11-12T01:36:17Z</time>
      </trkpt>
      <trkpt lat="47.69936" lon="-2.33752">
        <ele>57</ele>
        <time>2023-11-12T01:36:41Z</time>
      </trkpt>
      <trkpt lat="47.69955" lon="-2.33695">
        <ele>53</ele>
        <time>2023-11-12T01:37:38Z</time>
      </trkpt>
      <trkpt lat="47.69947" lon="-2.33726">
        <ele>55</ele>
        <time>2023-11-12T01:38:08Z</time>
      </trkpt>
      <trkpt lat="47.69933" lon="-2.33691">
        <ele>54</ele>
        <time>2023-11-12T01:38:45Z</time>
      </trkpt>
      <trkpt lat="47.69951" lon="-2.33686">
        <ele>53</ele>
        <time>2023-11-12T01:39:09Z</time>
      </trkpt>
      <trkpt lat="47.69939" lon="-2.33709">
        <ele>55</ele>
        <time>2023-11-12T01:39:35Z</time>
      </trkpt>
      <trkpt lat="47.69948" lon="-2.33684">
        <ele>53</ele>
        <time>2023-11-12T01:40:01Z</time>
      </trkpt>
      <trkpt lat="47.69936" lon="-2.33632">
        <ele>51</ele>
        <time>2023-11-12T01:40:50Z</time>
      </trkpt>
      <trkpt lat="47.69927" lon="-2.33609">
        <ele>51</ele>
        <time>2023-11-12T01:41:14Z</time>
      </trkpt>
      <trkpt lat="47.69919" lon="-2.33525">
        <ele>50</ele>
        <time>2023-11-12T01:42:30Z</time>
      </trkpt>
      <trkpt lat="47.69921" lon="-2.33499">
        <ele>49</ele>
        <time>2023-11-12T01:42:54Z</time>
      </trkpt>
      <trkpt lat="47.69914" lon="-2.33473">
        <ele>49</ele>
        <time>2023-11-12T01:43:19Z</time>
      </trkpt>
      <trkpt lat="47.69915" lon="-2.33446">
        <ele>48</ele>
        <time>2023-11-12T01:43:43Z</time>
      </trkpt>
    </trkseg>
  </trk>
  <trk>
    <name><![CDATA[RochefortTerre_EtangMoulinNeuf_14km-8151206]]></name>
    <extensions>
      <line xmlns="http://www.topografix.com/GPX/gpx_style/0/2">
        <color>00FF00</color>
        <width>4</width>
      </line>
    </extensions>
    <trkseg>
      <trkpt lat="47.69919" lon="-2.33729">
        <ele>56</ele>
        <time>2023-11-11T19:12:21Z</time>
      </trkpt>
      <trkpt lat="47.69725" lon="-2.33644">
        <ele>39</ele>
        <time>2023-11-11T19:16:51Z</time>
      </trkpt>
      <trkpt lat="47.6965" lon="-2.33931">
        <ele>50</ele>
        <time>2023-11-11T19:21:27Z</time>
      </trkpt>
      <trkpt lat="47.69558" lon="-2.3397">
        <ele>55</ele>
        <time>2023-11-11T19:23:35Z</time>
      </trkpt>
      <trkpt lat="47.6948" lon="-2.33948">
        <ele>61</ele>
        <time>2023-11-11T19:25:21Z</time>
      </trkpt>
      <trkpt lat="47.6926" lon="-2.3409">
        <ele>70</ele>
        <time>2023-11-11T19:30:41Z</time>
      </trkpt>
      <trkpt lat="47.69197" lon="-2.33828">
        <ele>74</ele>
        <time>2023-11-11T19:34:51Z</time>
      </trkpt>
      <trkpt lat="47.69127" lon="-2.3382">
        <ele>70</ele>
        <time>2023-11-11T19:36:25Z</time>
      </trkpt>
      <trkpt lat="47.69136" lon="-2.3397">
        <ele>67</ele>
        <time>2023-11-11T19:38:40Z</time>
      </trkpt>
      <trkpt lat="47.69162" lon="-2.34064">
        <ele>65</ele>
        <time>2023-11-11T19:40:11Z</time>
      </trkpt>
      <trkpt lat="47.6913" lon="-2.34279">
        <ele>58</ele>
        <time>2023-11-11T19:43:29Z</time>
      </trkpt>
      <trkpt lat="47.69084" lon="-2.34227">
        <ele>51</ele>
        <time>2023-11-11T19:44:46Z</time>
      </trkpt>
      <trkpt lat="47.69055" lon="-2.34317">
        <ele>52</ele>
        <time>2023-11-11T19:46:16Z</time>
      </trkpt>
      <trkpt lat="47.69049" lon="-2.34511">
        <ele>50</ele>
        <time>2023-11-11T19:49:10Z</time>
      </trkpt>
      <trkpt lat="47.69058" lon="-2.34781">
        <ele>49</ele>
        <time>2023-11-11T19:53:13Z</time>
      </trkpt>
      <trkpt lat="47.68974" lon="-2.34884">
        <ele>48</ele>
        <time>2023-11-11T19:55:38Z</time>
      </trkpt>
      <trkpt lat="47.68888" lon="-2.34901">
        <ele>47</ele>
        <time>2023-11-11T19:57:34Z</time>
      </trkpt>
      <trkpt lat="47.68844" lon="-2.35013">
        <ele>46</ele>
        <time>2023-11-11T19:59:31Z</time>
      </trkpt>
      <trkpt lat="47.68865" lon="-2.3512">
        <ele>45</ele>
        <time>2023-11-11T20:01:11Z</time>
      </trkpt>
      <trkpt lat="47.68989" lon="-2.35202">
        <ele>45</ele>
        <time>2023-11-11T20:04:12Z</time>
      </trkpt>
      <trkpt lat="47.68986" lon="-2.35339">
        <ele>46</ele>
        <time>2023-11-11T20:06:15Z</time>
      </trkpt>
      <trkpt lat="47.68928" lon="-2.35489">
        <ele>48</ele>
        <time>2023-11-11T20:08:51Z</time>
      </trkpt>
      <trkpt lat="47.68922" lon="-2.35635">
        <ele>45</ele>
        <time>2023-11-11T20:11:02Z</time>
      </trkpt>
      <trkpt lat="47.68934" lon="-2.35802">
        <ele>47</ele>
        <time>2023-11-11T20:13:33Z</time>
      </trkpt>
      <trkpt lat="47.6898" lon="-2.35884">
        <ele>48</ele>
        <time>2023-11-11T20:15:09Z</time>
      </trkpt>
      <trkpt lat="47.69018" lon="-2.35721">
        <ele>48</ele>
        <time>2023-11-11T20:17:44Z</time>
      </trkpt>
      <trkpt lat="47.69104" lon="-2.35468">
        <ele>47</ele>
        <time>2023-11-11T20:21:58Z</time>
      </trkpt>
      <trkpt lat="47.69159" lon="-2.35365">
        <ele>54</ele>
        <time>2023-11-11T20:23:56Z</time>
      </trkpt>
      <trkpt lat="47.69211" lon="-2.34987">
        <ele>52</ele>
        <time>2023-11-11T20:29:43Z</time>
      </trkpt>
      <trkpt lat="47.69292" lon="-2.35008">
        <ele>62</ele>
        <time>2023-11-11T20:31:33Z</time>
      </trkpt>
      <trkpt lat="47.69333" lon="-2.35206">
        <ele>75</ele>
        <time>2023-11-11T20:34:39Z</time>
      </trkpt>
      <trkpt lat="47.69489" lon="-2.35347">
        <ele>77</ele>
        <time>2023-11-11T20:38:42Z</time>
      </trkpt>
      <trkpt lat="47.6961" lon="-2.35317">
        <ele>75</ele>
        <time>2023-11-11T20:41:26Z</time>
      </trkpt>
      <trkpt lat="47.70017" lon="-2.35352">
        <ele>58</ele>
        <time>2023-11-11T20:50:30Z</time>
      </trkpt>
      <trkpt lat="47.70052" lon="-2.3545">
        <ele>56</ele>
        <time>2023-11-11T20:52:10Z</time>
      </trkpt>
      <trkpt lat="47.70127" lon="-2.35416">
        <ele>56</ele>
        <time>2023-11-11T20:53:54Z</time>
      </trkpt>
      <trkpt lat="47.7015" lon="-2.35352">
        <ele>58</ele>
        <time>2023-11-11T20:55:00Z</time>
      </trkpt>
      <trkpt lat="47.70254" lon="-2.35352">
        <ele>56</ele>
        <time>2023-11-11T20:57:18Z</time>
      </trkpt>
      <trkpt lat="47.70315" lon="-2.35232">
        <ele>48</ele>
        <time>2023-11-11T20:59:33Z</time>
      </trkpt>
      <trkpt lat="47.70393" lon="-2.35274">
        <ele>48</ele>
        <time>2023-11-11T21:01:24Z</time>
      </trkpt>
      <trkpt lat="47.70395" lon="-2.34927">
        <ele>49</ele>
        <time>2023-11-11T21:06:36Z</time>
      </trkpt>
      <trkpt lat="47.70335" lon="-2.34678">
        <ele>46</ele>
        <time>2023-11-11T21:10:33Z</time>
      </trkpt>
      <trkpt lat="47.70254" lon="-2.34236">
        <ele>45</ele>
        <time>2023-11-11T21:17:25Z</time>
      </trkpt>
      <trkpt lat="47.70185" lon="-2.34039">
        <ele>44</ele>
        <time>2023-11-11T21:20:44Z</time>
      </trkpt>
      <trkpt lat="47.70214" lon="-2.33777">
        <ele>33</ele>
        <time>2023-11-11T21:24:43Z</time>
      </trkpt>
      <trkpt lat="47.70153" lon="-2.33742">
        <ele>29</ele>
        <time>2023-11-11T21:26:10Z</time>
      </trkpt>
      <trkpt lat="47.70185" lon="-2.33425">
        <ele>44</ele>
        <time>2023-11-11T21:30:58Z</time>
      </trkpt>
      <trkpt lat="47.70069" lon="-2.33094">
        <ele>43</ele>
        <time>2023-11-11T21:36:33Z</time>
      </trkpt>
      <trkpt lat="47.69968" lon="-2.32588">
        <ele>60</ele>
        <time>2023-11-11T21:44:27Z</time>
      </trkpt>
      <trkpt lat="47.6998" lon="-2.32391">
        <ele>61</ele>
        <time>2023-11-11T21:47:24Z</time>
      </trkpt>
      <trkpt lat="47.70037" lon="-2.32326">
        <ele>68</ele>
        <time>2023-11-11T21:49:00Z</time>
      </trkpt>
      <trkpt lat="47.7011" lon="-2.31648">
        <ele>80</ele>
        <time>2023-11-11T21:59:17Z</time>
      </trkpt>
      <trkpt lat="47.70199" lon="-2.31545">
        <ele>79</ele>
        <time>2023-11-11T22:01:48Z</time>
      </trkpt>
      <trkpt lat="47.70156" lon="-2.3121">
        <ele>80</ele>
        <time>2023-11-11T22:06:54Z</time>
      </trkpt>
      <trkpt lat="47.7017" lon="-2.31099">
        <ele>81</ele>
        <time>2023-11-11T22:08:35Z</time>
      </trkpt>
      <trkpt lat="47.70294" lon="-2.31099">
        <ele>75</ele>
        <time>2023-11-11T22:11:21Z</time>
      </trkpt>
      <trkpt lat="47.70355" lon="-2.30798">
        <ele>68</ele>
        <time>2023-11-11T22:16:03Z</time>
      </trkpt>
      <trkpt lat="47.70462" lon="-2.30743">
        <ele>47</ele>
        <time>2023-11-11T22:18:34Z</time>
      </trkpt>
      <trkpt lat="47.70629" lon="-2.30717">
        <ele>24</ele>
        <time>2023-11-11T22:22:18Z</time>
      </trkpt>
      <trkpt lat="47.70442" lon="-2.30713">
        <ele>51</ele>
        <time>2023-11-11T22:26:28Z</time>
      </trkpt>
      <trkpt lat="47.70401" lon="-2.30498">
        <ele>55</ele>
        <time>2023-11-11T22:29:48Z</time>
      </trkpt>
      <trkpt lat="47.70479" lon="-2.30292">
        <ele>41</ele>
        <time>2023-11-11T22:33:21Z</time>
      </trkpt>
      <trkpt lat="47.70416" lon="-2.30107">
        <ele>44</ele>
        <time>2023-11-11T22:36:27Z</time>
      </trkpt>
      <trkpt lat="47.70323" lon="-2.30099">
        <ele>62</ele>
        <time>2023-11-11T22:38:31Z</time>
      </trkpt>
      <trkpt lat="47.70254" lon="-2.30026">
        <ele>74</ele>
        <time>2023-11-11T22:40:24Z</time>
      </trkpt>
      <trkpt lat="47.70211" lon="-2.30309">
        <ele>75</ele>
        <time>2023-11-11T22:44:45Z</time>
      </trkpt>
      <trkpt lat="47.70029" lon="-2.30833">
        <ele>77</ele>
        <time>2023-11-11T22:53:34Z</time>
      </trkpt>
      <trkpt lat="47.70092" lon="-2.30961">
        <ele>79</ele>
        <time>2023-11-11T22:55:57Z</time>
      </trkpt>
      <trkpt lat="47.70173" lon="-2.31146">
        <ele>80</ele>
        <time>2023-11-11T22:59:15Z</time>
      </trkpt>
      <trkpt lat="47.70124" lon="-2.31322">
        <ele>79</ele>
        <time>2023-11-11T23:02:06Z</time>
      </trkpt>
      <trkpt lat="47.70107" lon="-2.31567">
        <ele>80</ele>
        <time>2023-11-11T23:05:47Z</time>
      </trkpt>
      <trkpt lat="47.7004" lon="-2.32365">
        <ele>69</ele>
        <time>2023-11-11T23:17:50Z</time>
      </trkpt>
      <trkpt lat="47.69951" lon="-2.32502">
        <ele>58</ele>
        <time>2023-11-11T23:20:41Z</time>
      </trkpt>
      <trkpt lat="47.7" lon="-2.32845">
        <ele>54</ele>
        <time>2023-11-11T23:25:55Z</time>
      </trkpt>
      <trkpt lat="47.70078" lon="-2.33176">
        <ele>38</ele>
        <time>2023-11-11T23:31:10Z</time>
      </trkpt>
      <trkpt lat="47.70193" lon="-2.33524">
        <ele>39</ele>
        <time>2023-11-11T23:36:59Z</time>
      </trkpt>
      <trkpt lat="47.7019" lon="-2.33751">
        <ele>29</ele>
        <time>2023-11-11T23:40:22Z</time>
      </trkpt>
      <trkpt lat="47.7006" lon="-2.33712">
        <ele>41</ele>
        <time>2023-11-11T23:43:19Z</time>
      </trkpt>
      <trkpt lat="47.69936" lon="-2.33489">
        <ele>46</ele>
        <time>2023-11-11T23:47:39Z</time>
      </trkpt>
      <trkpt lat="47.6991" lon="-2.33725">
        <ele>55</ele>
        <time>2023-11-11T23:51:14Z</time>
      </trkpt>
    </trkseg>
  </trk>
  <trk>
    <name><![CDATA[RochefortTerre_Malansac_19.2km-8308528]]></name>
    <extensions>
      <line xmlns="http://www.topografix.com/GPX/gpx_style/0/2">
        <color>FF0000</color>
        <width>4</width>
      </line>
    </extensions>
    <trkseg>
      <trkpt lat="47.6995" lon="-2.3364">
        <ele>50</ele>
        <time>2023-11-11T19:12:11Z</time>
      </trkpt>
      <trkpt lat="47.70158" lon="-2.33769">
        <ele>30</ele>
        <time>2023-11-11T19:17:12Z</time>
      </trkpt>
      <trkpt lat="47.70199" lon="-2.33528">
        <ele>40</ele>
        <time>2023-11-11T19:20:55Z</time>
      </trkpt>
      <trkpt lat="47.70072" lon="-2.33108">
        <ele>42</ele>
        <time>2023-11-11T19:27:49Z</time>
      </trkpt>
      <trkpt lat="47.6995" lon="-2.32576">
        <ele>57</ele>
        <time>2023-11-11T19:36:13Z</time>
      </trkpt>
      <trkpt lat="47.70031" lon="-2.32318">
        <ele>67</ele>
        <time>2023-11-11T19:40:29Z</time>
      </trkpt>
      <trkpt lat="47.70106" lon="-2.3164">
        <ele>80</ele>
        <time>2023-11-11T19:50:46Z</time>
      </trkpt>
      <trkpt lat="47.701" lon="-2.31468">
        <ele>79</ele>
        <time>2023-11-11T19:53:21Z</time>
      </trkpt>
      <trkpt lat="47.70158" lon="-2.31228">
        <ele>80</ele>
        <time>2023-11-11T19:57:10Z</time>
      </trkpt>
      <trkpt lat="47.70147" lon="-2.30996">
        <ele>79</ele>
        <time>2023-11-11T20:00:39Z</time>
      </trkpt>
      <trkpt lat="47.70025" lon="-2.30876">
        <ele>78</ele>
        <time>2023-11-11T20:03:54Z</time>
      </trkpt>
      <trkpt lat="47.70048" lon="-2.30765">
        <ele>77</ele>
        <time>2023-11-11T20:05:38Z</time>
      </trkpt>
      <trkpt lat="47.70274" lon="-2.30027">
        <ele>69</ele>
        <time>2023-11-11T20:17:46Z</time>
      </trkpt>
      <trkpt lat="47.69935" lon="-2.29947">
        <ele>59</ele>
        <time>2023-11-11T20:25:24Z</time>
      </trkpt>
      <trkpt lat="47.70006" lon="-2.29619">
        <ele>62</ele>
        <time>2023-11-11T20:30:34Z</time>
      </trkpt>
      <trkpt lat="47.69958" lon="-2.29318">
        <ele>60</ele>
        <time>2023-11-11T20:35:12Z</time>
      </trkpt>
      <trkpt lat="47.69924" lon="-2.29027">
        <ele>56</ele>
        <time>2023-11-11T20:39:37Z</time>
      </trkpt>
      <trkpt lat="47.69649" lon="-2.28874">
        <ele>43</ele>
        <time>2023-11-11T20:46:09Z</time>
      </trkpt>
      <trkpt lat="47.69549" lon="-2.28813">
        <ele>54</ele>
        <time>2023-11-11T20:48:33Z</time>
      </trkpt>
      <trkpt lat="47.69415" lon="-2.28629">
        <ele>70</ele>
        <time>2023-11-11T20:52:37Z</time>
      </trkpt>
      <trkpt lat="47.68928" lon="-2.28807">
        <ele>67</ele>
        <time>2023-11-11T21:03:46Z</time>
      </trkpt>
      <trkpt lat="47.68787" lon="-2.28802">
        <ele>75</ele>
        <time>2023-11-11T21:06:54Z</time>
      </trkpt>
      <trkpt lat="47.68752" lon="-2.287">
        <ele>76</ele>
        <time>2023-11-11T21:08:37Z</time>
      </trkpt>
      <trkpt lat="47.6866" lon="-2.28762">
        <ele>76</ele>
        <time>2023-11-11T21:10:52Z</time>
      </trkpt>
      <trkpt lat="47.68591" lon="-2.28792">
        <ele>77</ele>
        <time>2023-11-11T21:12:28Z</time>
      </trkpt>
      <trkpt lat="47.68563" lon="-2.28853">
        <ele>77</ele>
        <time>2023-11-11T21:13:34Z</time>
      </trkpt>
      <trkpt lat="47.68471" lon="-2.28869">
        <ele>76</ele>
        <time>2023-11-11T21:15:38Z</time>
      </trkpt>
      <trkpt lat="47.68423" lon="-2.29058">
        <ele>73</ele>
        <time>2023-11-11T21:18:39Z</time>
      </trkpt>
      <trkpt lat="47.68467" lon="-2.29185">
        <ele>71</ele>
        <time>2023-11-11T21:20:47Z</time>
      </trkpt>
      <trkpt lat="47.68515" lon="-2.29369">
        <ele>74</ele>
        <time>2023-11-11T21:23:45Z</time>
      </trkpt>
      <trkpt lat="47.68666" lon="-2.29701">
        <ele>77</ele>
        <time>2023-11-11T21:29:45Z</time>
      </trkpt>
      <trkpt lat="47.68739" lon="-2.30313">
        <ele>89</ele>
        <time>2023-11-11T21:39:03Z</time>
      </trkpt>
      <trkpt lat="47.68381" lon="-2.30211">
        <ele>83</ele>
        <time>2023-11-11T21:47:09Z</time>
      </trkpt>
      <trkpt lat="47.68275" lon="-2.30155">
        <ele>79</ele>
        <time>2023-11-11T21:49:40Z</time>
      </trkpt>
      <trkpt lat="47.68127" lon="-2.30369">
        <ele>79</ele>
        <time>2023-11-11T21:54:15Z</time>
      </trkpt>
      <trkpt lat="47.6788" lon="-2.30568">
        <ele>84</ele>
        <time>2023-11-11T22:00:30Z</time>
      </trkpt>
      <trkpt lat="47.67996" lon="-2.30931">
        <ele>83</ele>
        <time>2023-11-11T22:06:31Z</time>
      </trkpt>
      <trkpt lat="47.68151" lon="-2.31135">
        <ele>86</ele>
        <time>2023-11-11T22:11:08Z</time>
      </trkpt>
      <trkpt lat="47.68333" lon="-2.31655">
        <ele>83</ele>
        <time>2023-11-11T22:19:54Z</time>
      </trkpt>
      <trkpt lat="47.68299" lon="-2.32079">
        <ele>80</ele>
        <time>2023-11-11T22:26:18Z</time>
      </trkpt>
      <trkpt lat="47.68381" lon="-2.32431">
        <ele>81</ele>
        <time>2023-11-11T22:31:52Z</time>
      </trkpt>
      <trkpt lat="47.68539" lon="-2.32344">
        <ele>84</ele>
        <time>2023-11-11T22:35:37Z</time>
      </trkpt>
      <trkpt lat="47.68584" lon="-2.32497">
        <ele>84</ele>
        <time>2023-11-11T22:38:07Z</time>
      </trkpt>
      <trkpt lat="47.68423" lon="-2.32625">
        <ele>81</ele>
        <time>2023-11-11T22:42:11Z</time>
      </trkpt>
      <trkpt lat="47.6835" lon="-2.32916">
        <ele>80</ele>
        <time>2023-11-11T22:46:50Z</time>
      </trkpt>
      <trkpt lat="47.68268" lon="-2.33003">
        <ele>82</ele>
        <time>2023-11-11T22:49:04Z</time>
      </trkpt>
      <trkpt lat="47.68337" lon="-2.33094">
        <ele>82</ele>
        <time>2023-11-11T22:51:07Z</time>
      </trkpt>
      <trkpt lat="47.68429" lon="-2.331">
        <ele>78</ele>
        <time>2023-11-11T22:53:10Z</time>
      </trkpt>
      <trkpt lat="47.68498" lon="-2.33227">
        <ele>74</ele>
        <time>2023-11-11T22:55:37Z</time>
      </trkpt>
      <trkpt lat="47.68488" lon="-2.33457">
        <ele>68</ele>
        <time>2023-11-11T22:59:04Z</time>
      </trkpt>
      <trkpt lat="47.68618" lon="-2.33732">
        <ele>69</ele>
        <time>2023-11-11T23:04:06Z</time>
      </trkpt>
      <trkpt lat="47.68666" lon="-2.33988">
        <ele>72</ele>
        <time>2023-11-11T23:08:05Z</time>
      </trkpt>
      <trkpt lat="47.68677" lon="-2.34161">
        <ele>77</ele>
        <time>2023-11-11T23:10:41Z</time>
      </trkpt>
      <trkpt lat="47.68495" lon="-2.34243">
        <ele>76</ele>
        <time>2023-11-11T23:14:55Z</time>
      </trkpt>
      <trkpt lat="47.68275" lon="-2.34457">
        <ele>77</ele>
        <time>2023-11-11T23:20:45Z</time>
      </trkpt>
      <trkpt lat="47.68364" lon="-2.34942">
        <ele>76</ele>
        <time>2023-11-11T23:28:17Z</time>
      </trkpt>
      <trkpt lat="47.68553" lon="-2.34962">
        <ele>69</ele>
        <time>2023-11-11T23:32:30Z</time>
      </trkpt>
      <trkpt lat="47.68807" lon="-2.34687">
        <ele>60</ele>
        <time>2023-11-11T23:39:29Z</time>
      </trkpt>
      <trkpt lat="47.68873" lon="-2.34284">
        <ele>62</ele>
        <time>2023-11-11T23:45:42Z</time>
      </trkpt>
      <trkpt lat="47.69072" lon="-2.34202">
        <ele>50</ele>
        <time>2023-11-11T23:50:17Z</time>
      </trkpt>
      <trkpt lat="47.69058" lon="-2.34284">
        <ele>52</ele>
        <time>2023-11-11T23:51:33Z</time>
      </trkpt>
      <trkpt lat="47.69044" lon="-2.34513">
        <ele>50</ele>
        <time>2023-11-11T23:55:00Z</time>
      </trkpt>
      <trkpt lat="47.69065" lon="-2.34768">
        <ele>49</ele>
        <time>2023-11-11T23:58:51Z</time>
      </trkpt>
      <trkpt lat="47.68948" lon="-2.34886">
        <ele>47</ele>
        <time>2023-11-12T00:02:00Z</time>
      </trkpt>
      <trkpt lat="47.68869" lon="-2.34927">
        <ele>46</ele>
        <time>2023-11-12T00:03:51Z</time>
      </trkpt>
      <trkpt lat="47.68842" lon="-2.35018">
        <ele>46</ele>
        <time>2023-11-12T00:05:21Z</time>
      </trkpt>
      <trkpt lat="47.68876" lon="-2.3512">
        <ele>45</ele>
        <time>2023-11-12T00:07:03Z</time>
      </trkpt>
      <trkpt lat="47.68996" lon="-2.35192">
        <ele>45</ele>
        <time>2023-11-12T00:09:55Z</time>
      </trkpt>
      <trkpt lat="47.68969" lon="-2.35447">
        <ele>46</ele>
        <time>2023-11-12T00:13:47Z</time>
      </trkpt>
      <trkpt lat="47.68917" lon="-2.35636">
        <ele>45</ele>
        <time>2023-11-12T00:16:51Z</time>
      </trkpt>
      <trkpt lat="47.68931" lon="-2.35784">
        <ele>47</ele>
        <time>2023-11-12T00:19:05Z</time>
      </trkpt>
      <trkpt lat="47.68969" lon="-2.35876">
        <ele>48</ele>
        <time>2023-11-12T00:20:42Z</time>
      </trkpt>
      <trkpt lat="47.69058" lon="-2.35575">
        <ele>47</ele>
        <time>2023-11-12T00:25:37Z</time>
      </trkpt>
      <trkpt lat="47.69175" lon="-2.35381">
        <ele>55</ele>
        <time>2023-11-12T00:29:31Z</time>
      </trkpt>
      <trkpt lat="47.69209" lon="-2.35024">
        <ele>55</ele>
        <time>2023-11-12T00:34:55Z</time>
      </trkpt>
      <trkpt lat="47.69292" lon="-2.35018">
        <ele>63</ele>
        <time>2023-11-12T00:36:46Z</time>
      </trkpt>
      <trkpt lat="47.69347" lon="-2.35217">
        <ele>75</ele>
        <time>2023-11-12T00:39:59Z</time>
      </trkpt>
      <trkpt lat="47.69494" lon="-2.35345">
        <ele>77</ele>
        <time>2023-11-12T00:43:47Z</time>
      </trkpt>
      <trkpt lat="47.70016" lon="-2.35355">
        <ele>58</ele>
        <time>2023-11-12T00:55:23Z</time>
      </trkpt>
      <trkpt lat="47.70058" lon="-2.35442">
        <ele>56</ele>
        <time>2023-11-12T00:56:59Z</time>
      </trkpt>
      <trkpt lat="47.7015" lon="-2.3536">
        <ele>58</ele>
        <time>2023-11-12T00:59:23Z</time>
      </trkpt>
      <trkpt lat="47.70312" lon="-2.35238">
        <ele>49</ele>
        <time>2023-11-12T01:03:25Z</time>
      </trkpt>
      <trkpt lat="47.70405" lon="-2.35263">
        <ele>49</ele>
        <time>2023-11-12T01:05:31Z</time>
      </trkpt>
      <trkpt lat="47.70384" lon="-2.34886">
        <ele>49</ele>
        <time>2023-11-12T01:11:11Z</time>
      </trkpt>
      <trkpt lat="47.70312" lon="-2.34569">
        <ele>51</ele>
        <time>2023-11-12T01:16:11Z</time>
      </trkpt>
      <trkpt lat="47.7026" lon="-2.34222">
        <ele>47</ele>
        <time>2023-11-12T01:21:31Z</time>
      </trkpt>
      <trkpt lat="47.70192" lon="-2.34028">
        <ele>46</ele>
        <time>2023-11-12T01:24:47Z</time>
      </trkpt>
      <trkpt lat="47.70205" lon="-2.33773">
        <ele>32</ele>
        <time>2023-11-12T01:28:37Z</time>
      </trkpt>
      <trkpt lat="47.6992" lon="-2.336">
        <ele>51</ele>
        <time>2023-11-12T01:35:27Z</time>
      </trkpt>
    </trkseg>
  </trk>
</gpx>